<?xml version="1.0" encoding="UTF-8" standalone="no" ?>
<gpx xmlns="http://www.topografix.com/GPX/1/1" xmlns:xsi="http://www.w3.org/2001/XMLSchema-instance" xsi:schemaLocation="http://www.topografix.com/GPX/1/1 http://www.topografix.com/GPX/1/1/gpx.xsd" version="1.1" creator="VisuGPX - https://www.visugpx.com">
  <metadata>
    <name>SAIGUEDE-circuit-belles-vues_9 km</name>
  </metadata>
  <trk>
    <name><![CDATA[SAIGUEDE-circuit-belles-vues_9 km]]></name>
    <trkseg>
      <trkpt lat="43.52863" lon="1.14573">
        <ele>225</ele>
        <time>2017-12-16T15:28:37+01:00</time>
      </trkpt>
      <trkpt lat="43.52862" lon="1.14574">
        <ele>225</ele>
        <time>2017-12-16T15:28:38+01:00</time>
      </trkpt>
      <trkpt lat="43.52861" lon="1.14574">
        <ele>225</ele>
        <time>2017-12-16T15:28:39+01:00</time>
      </trkpt>
      <trkpt lat="43.52855" lon="1.14581">
        <ele>225</ele>
        <time>2017-12-16T15:29:10+01:00</time>
      </trkpt>
      <trkpt lat="43.52846" lon="1.14579">
        <ele>226</ele>
        <time>2017-12-16T15:29:31+01:00</time>
      </trkpt>
      <trkpt lat="43.52845" lon="1.14549">
        <ele>226</ele>
        <time>2017-12-16T15:29:55+01:00</time>
      </trkpt>
      <trkpt lat="43.52845" lon="1.14536">
        <ele>226</ele>
        <time>2017-12-16T15:30:01+01:00</time>
      </trkpt>
      <trkpt lat="43.52845" lon="1.14534">
        <ele>226</ele>
        <time>2017-12-16T15:30:02+01:00</time>
      </trkpt>
      <trkpt lat="43.52845" lon="1.14532">
        <ele>226</ele>
        <time>2017-12-16T15:30:03+01:00</time>
      </trkpt>
      <trkpt lat="43.52843" lon="1.14506">
        <ele>227</ele>
        <time>2017-12-16T15:30:20+01:00</time>
      </trkpt>
      <trkpt lat="43.52846" lon="1.14493">
        <ele>227</ele>
        <time>2017-12-16T15:30:27+01:00</time>
      </trkpt>
      <trkpt lat="43.52846" lon="1.14492">
        <ele>227</ele>
        <time>2017-12-16T15:30:28+01:00</time>
      </trkpt>
      <trkpt lat="43.52846" lon="1.1449">
        <ele>227</ele>
        <time>2017-12-16T15:30:29+01:00</time>
      </trkpt>
      <trkpt lat="43.52847" lon="1.14489">
        <ele>227</ele>
        <time>2017-12-16T15:30:30+01:00</time>
      </trkpt>
      <trkpt lat="43.52847" lon="1.14487">
        <ele>226</ele>
        <time>2017-12-16T15:30:31+01:00</time>
      </trkpt>
      <trkpt lat="43.52848" lon="1.14485">
        <ele>226</ele>
        <time>2017-12-16T15:30:32+01:00</time>
      </trkpt>
      <trkpt lat="43.52861" lon="1.14478">
        <ele>226</ele>
        <time>2017-12-16T15:30:46+01:00</time>
      </trkpt>
      <trkpt lat="43.52862" lon="1.14479">
        <ele>226</ele>
        <time>2017-12-16T15:30:47+01:00</time>
      </trkpt>
      <trkpt lat="43.52864" lon="1.14479">
        <ele>226</ele>
        <time>2017-12-16T15:30:48+01:00</time>
      </trkpt>
      <trkpt lat="43.52868" lon="1.1448">
        <ele>226</ele>
        <time>2017-12-16T15:30:49+01:00</time>
      </trkpt>
      <trkpt lat="43.5287" lon="1.1448">
        <ele>226</ele>
        <time>2017-12-16T15:30:50+01:00</time>
      </trkpt>
      <trkpt lat="43.52871" lon="1.1448">
        <ele>226</ele>
        <time>2017-12-16T15:30:51+01:00</time>
      </trkpt>
      <trkpt lat="43.52873" lon="1.14479">
        <ele>226</ele>
        <time>2017-12-16T15:30:52+01:00</time>
      </trkpt>
      <trkpt lat="43.52873" lon="1.14478">
        <ele>226</ele>
        <time>2017-12-16T15:30:53+01:00</time>
      </trkpt>
      <trkpt lat="43.52886" lon="1.14478">
        <ele>225</ele>
        <time>2017-12-16T15:31:04+01:00</time>
      </trkpt>
      <trkpt lat="43.52898" lon="1.14477">
        <ele>225</ele>
        <time>2017-12-16T15:31:20+01:00</time>
      </trkpt>
      <trkpt lat="43.52903" lon="1.14477">
        <ele>225</ele>
        <time>2017-12-16T15:31:24+01:00</time>
      </trkpt>
      <trkpt lat="43.52908" lon="1.14478">
        <ele>225</ele>
        <time>2017-12-16T15:31:27+01:00</time>
      </trkpt>
      <trkpt lat="43.5291" lon="1.14479">
        <ele>225</ele>
        <time>2017-12-16T15:31:28+01:00</time>
      </trkpt>
      <trkpt lat="43.52928" lon="1.14479">
        <ele>225</ele>
        <time>2017-12-16T15:31:40+01:00</time>
      </trkpt>
      <trkpt lat="43.52951" lon="1.14472">
        <ele>225</ele>
        <time>2017-12-16T15:31:56+01:00</time>
      </trkpt>
      <trkpt lat="43.52969" lon="1.14475">
        <ele>225</ele>
        <time>2017-12-16T15:32:12+01:00</time>
      </trkpt>
      <trkpt lat="43.52981" lon="1.14477">
        <ele>226</ele>
        <time>2017-12-16T15:32:23+01:00</time>
      </trkpt>
      <trkpt lat="43.52983" lon="1.14477">
        <ele>227</ele>
        <time>2017-12-16T15:32:24+01:00</time>
      </trkpt>
      <trkpt lat="43.52984" lon="1.14478">
        <ele>227</ele>
        <time>2017-12-16T15:32:25+01:00</time>
      </trkpt>
      <trkpt lat="43.52993" lon="1.14476">
        <ele>228</ele>
        <time>2017-12-16T15:32:35+01:00</time>
      </trkpt>
      <trkpt lat="43.52994" lon="1.14476">
        <ele>228</ele>
        <time>2017-12-16T15:32:36+01:00</time>
      </trkpt>
      <trkpt lat="43.52996" lon="1.14477">
        <ele>228</ele>
        <time>2017-12-16T15:32:37+01:00</time>
      </trkpt>
      <trkpt lat="43.52997" lon="1.14478">
        <ele>229</ele>
        <time>2017-12-16T15:32:38+01:00</time>
      </trkpt>
      <trkpt lat="43.52999" lon="1.14479">
        <ele>229</ele>
        <time>2017-12-16T15:32:39+01:00</time>
      </trkpt>
      <trkpt lat="43.53" lon="1.1448">
        <ele>229</ele>
        <time>2017-12-16T15:32:40+01:00</time>
      </trkpt>
      <trkpt lat="43.53002" lon="1.1448">
        <ele>229</ele>
        <time>2017-12-16T15:32:41+01:00</time>
      </trkpt>
      <trkpt lat="43.53014" lon="1.14485">
        <ele>231</ele>
        <time>2017-12-16T15:32:55+01:00</time>
      </trkpt>
      <trkpt lat="43.53032" lon="1.14491">
        <ele>233</ele>
        <time>2017-12-16T15:33:13+01:00</time>
      </trkpt>
      <trkpt lat="43.53044" lon="1.14504">
        <ele>236</ele>
        <time>2017-12-16T15:33:29+01:00</time>
      </trkpt>
      <trkpt lat="43.53058" lon="1.14512">
        <ele>238</ele>
        <time>2017-12-16T15:33:46+01:00</time>
      </trkpt>
      <trkpt lat="43.53074" lon="1.14521">
        <ele>240</ele>
        <time>2017-12-16T15:34:00+01:00</time>
      </trkpt>
      <trkpt lat="43.53089" lon="1.14528">
        <ele>243</ele>
        <time>2017-12-16T15:34:15+01:00</time>
      </trkpt>
      <trkpt lat="43.53104" lon="1.14533">
        <ele>245</ele>
        <time>2017-12-16T15:34:33+01:00</time>
      </trkpt>
      <trkpt lat="43.53122" lon="1.14543">
        <ele>248</ele>
        <time>2017-12-16T15:34:47+01:00</time>
      </trkpt>
      <trkpt lat="43.53132" lon="1.14551">
        <ele>250</ele>
        <time>2017-12-16T15:34:58+01:00</time>
      </trkpt>
      <trkpt lat="43.53135" lon="1.14553">
        <ele>250</ele>
        <time>2017-12-16T15:35:00+01:00</time>
      </trkpt>
      <trkpt lat="43.53149" lon="1.14565">
        <ele>253</ele>
        <time>2017-12-16T15:35:15+01:00</time>
      </trkpt>
      <trkpt lat="43.53169" lon="1.14574">
        <ele>255</ele>
        <time>2017-12-16T15:35:29+01:00</time>
      </trkpt>
      <trkpt lat="43.53186" lon="1.14584">
        <ele>257</ele>
        <time>2017-12-16T15:35:44+01:00</time>
      </trkpt>
      <trkpt lat="43.53197" lon="1.14586">
        <ele>258</ele>
        <time>2017-12-16T15:35:57+01:00</time>
      </trkpt>
      <trkpt lat="43.532" lon="1.14584">
        <ele>258</ele>
        <time>2017-12-16T15:36:24+01:00</time>
      </trkpt>
      <trkpt lat="43.53214" lon="1.14591">
        <ele>260</ele>
        <time>2017-12-16T15:36:50+01:00</time>
      </trkpt>
      <trkpt lat="43.53223" lon="1.14593">
        <ele>260</ele>
        <time>2017-12-16T15:36:58+01:00</time>
      </trkpt>
      <trkpt lat="43.53248" lon="1.14601">
        <ele>263</ele>
        <time>2017-12-16T15:37:20+01:00</time>
      </trkpt>
      <trkpt lat="43.53267" lon="1.14605">
        <ele>265</ele>
        <time>2017-12-16T15:37:40+01:00</time>
      </trkpt>
      <trkpt lat="43.53293" lon="1.14613">
        <ele>268</ele>
        <time>2017-12-16T15:38:01+01:00</time>
      </trkpt>
      <trkpt lat="43.53313" lon="1.14619">
        <ele>269</ele>
        <time>2017-12-16T15:38:19+01:00</time>
      </trkpt>
      <trkpt lat="43.53322" lon="1.14622">
        <ele>270</ele>
        <time>2017-12-16T15:38:27+01:00</time>
      </trkpt>
      <trkpt lat="43.53336" lon="1.14626">
        <ele>271</ele>
        <time>2017-12-16T15:38:41+01:00</time>
      </trkpt>
      <trkpt lat="43.53356" lon="1.14633">
        <ele>273</ele>
        <time>2017-12-16T15:38:55+01:00</time>
      </trkpt>
      <trkpt lat="43.53361" lon="1.14636">
        <ele>273</ele>
        <time>2017-12-16T15:39:00+01:00</time>
      </trkpt>
      <trkpt lat="43.53367" lon="1.14638">
        <ele>274</ele>
        <time>2017-12-16T15:39:04+01:00</time>
      </trkpt>
      <trkpt lat="43.53369" lon="1.14638">
        <ele>274</ele>
        <time>2017-12-16T15:39:05+01:00</time>
      </trkpt>
      <trkpt lat="43.53371" lon="1.14638">
        <ele>274</ele>
        <time>2017-12-16T15:39:06+01:00</time>
      </trkpt>
      <trkpt lat="43.53387" lon="1.14643">
        <ele>277</ele>
        <time>2017-12-16T15:39:20+01:00</time>
      </trkpt>
      <trkpt lat="43.53416" lon="1.14651">
        <ele>280</ele>
        <time>2017-12-16T15:39:43+01:00</time>
      </trkpt>
      <trkpt lat="43.53454" lon="1.1466">
        <ele>282</ele>
        <time>2017-12-16T15:40:10+01:00</time>
      </trkpt>
      <trkpt lat="43.5346" lon="1.14661">
        <ele>282</ele>
        <time>2017-12-16T15:40:15+01:00</time>
      </trkpt>
      <trkpt lat="43.53461" lon="1.14662">
        <ele>282</ele>
        <time>2017-12-16T15:40:16+01:00</time>
      </trkpt>
      <trkpt lat="43.53482" lon="1.14666">
        <ele>283</ele>
        <time>2017-12-16T15:40:34+01:00</time>
      </trkpt>
      <trkpt lat="43.53483" lon="1.14666">
        <ele>283</ele>
        <time>2017-12-16T15:40:36+01:00</time>
      </trkpt>
      <trkpt lat="43.53484" lon="1.14666">
        <ele>283</ele>
        <time>2017-12-16T15:40:37+01:00</time>
      </trkpt>
      <trkpt lat="43.53485" lon="1.14666">
        <ele>283</ele>
        <time>2017-12-16T15:40:38+01:00</time>
      </trkpt>
      <trkpt lat="43.53497" lon="1.14664">
        <ele>283</ele>
        <time>2017-12-16T15:40:53+01:00</time>
      </trkpt>
      <trkpt lat="43.53497" lon="1.1466">
        <ele>283</ele>
        <time>2017-12-16T15:41:11+01:00</time>
      </trkpt>
      <trkpt lat="43.53495" lon="1.14656">
        <ele>283</ele>
        <time>2017-12-16T15:41:20+01:00</time>
      </trkpt>
      <trkpt lat="43.53495" lon="1.14654">
        <ele>283</ele>
        <time>2017-12-16T15:41:21+01:00</time>
      </trkpt>
      <trkpt lat="43.53493" lon="1.14653">
        <ele>283</ele>
        <time>2017-12-16T15:41:22+01:00</time>
      </trkpt>
      <trkpt lat="43.53493" lon="1.14652">
        <ele>283</ele>
        <time>2017-12-16T15:41:23+01:00</time>
      </trkpt>
      <trkpt lat="43.53492" lon="1.14648">
        <ele>283</ele>
        <time>2017-12-16T15:41:26+01:00</time>
      </trkpt>
      <trkpt lat="43.53492" lon="1.14646">
        <ele>284</ele>
        <time>2017-12-16T15:41:27+01:00</time>
      </trkpt>
      <trkpt lat="43.53493" lon="1.14645">
        <ele>284</ele>
        <time>2017-12-16T15:41:28+01:00</time>
      </trkpt>
      <trkpt lat="43.53493" lon="1.14644">
        <ele>284</ele>
        <time>2017-12-16T15:41:29+01:00</time>
      </trkpt>
      <trkpt lat="43.53494" lon="1.14634">
        <ele>284</ele>
        <time>2017-12-16T15:41:36+01:00</time>
      </trkpt>
      <trkpt lat="43.53494" lon="1.14632">
        <ele>284</ele>
        <time>2017-12-16T15:41:37+01:00</time>
      </trkpt>
      <trkpt lat="43.53494" lon="1.1463">
        <ele>284</ele>
        <time>2017-12-16T15:41:38+01:00</time>
      </trkpt>
      <trkpt lat="43.53494" lon="1.14622">
        <ele>284</ele>
        <time>2017-12-16T15:41:43+01:00</time>
      </trkpt>
      <trkpt lat="43.53494" lon="1.14621">
        <ele>284</ele>
        <time>2017-12-16T15:41:44+01:00</time>
      </trkpt>
      <trkpt lat="43.53494" lon="1.14619">
        <ele>284</ele>
        <time>2017-12-16T15:41:45+01:00</time>
      </trkpt>
      <trkpt lat="43.53494" lon="1.14617">
        <ele>285</ele>
        <time>2017-12-16T15:41:46+01:00</time>
      </trkpt>
      <trkpt lat="43.53494" lon="1.14616">
        <ele>285</ele>
        <time>2017-12-16T15:41:47+01:00</time>
      </trkpt>
      <trkpt lat="43.53494" lon="1.14614">
        <ele>285</ele>
        <time>2017-12-16T15:41:48+01:00</time>
      </trkpt>
      <trkpt lat="43.53494" lon="1.14611">
        <ele>285</ele>
        <time>2017-12-16T15:41:50+01:00</time>
      </trkpt>
      <trkpt lat="43.53496" lon="1.14594">
        <ele>285</ele>
        <time>2017-12-16T15:42:00+01:00</time>
      </trkpt>
      <trkpt lat="43.53495" lon="1.14588">
        <ele>286</ele>
        <time>2017-12-16T15:42:04+01:00</time>
      </trkpt>
      <trkpt lat="43.53495" lon="1.14586">
        <ele>286</ele>
        <time>2017-12-16T15:42:05+01:00</time>
      </trkpt>
      <trkpt lat="43.53495" lon="1.14584">
        <ele>286</ele>
        <time>2017-12-16T15:42:06+01:00</time>
      </trkpt>
      <trkpt lat="43.53497" lon="1.14565">
        <ele>287</ele>
        <time>2017-12-16T15:42:16+01:00</time>
      </trkpt>
      <trkpt lat="43.53496" lon="1.14563">
        <ele>287</ele>
        <time>2017-12-16T15:42:17+01:00</time>
      </trkpt>
      <trkpt lat="43.53496" lon="1.14562">
        <ele>287</ele>
        <time>2017-12-16T15:42:18+01:00</time>
      </trkpt>
      <trkpt lat="43.53496" lon="1.14561">
        <ele>287</ele>
        <time>2017-12-16T15:42:19+01:00</time>
      </trkpt>
      <trkpt lat="43.53496" lon="1.1456">
        <ele>287</ele>
        <time>2017-12-16T15:42:20+01:00</time>
      </trkpt>
      <trkpt lat="43.53497" lon="1.14539">
        <ele>288</ele>
        <time>2017-12-16T15:42:33+01:00</time>
      </trkpt>
      <trkpt lat="43.535" lon="1.1452">
        <ele>288</ele>
        <time>2017-12-16T15:42:47+01:00</time>
      </trkpt>
      <trkpt lat="43.535" lon="1.14519">
        <ele>288</ele>
        <time>2017-12-16T15:42:48+01:00</time>
      </trkpt>
      <trkpt lat="43.535" lon="1.14518">
        <ele>288</ele>
        <time>2017-12-16T15:42:49+01:00</time>
      </trkpt>
      <trkpt lat="43.535" lon="1.14498">
        <ele>289</ele>
        <time>2017-12-16T15:43:01+01:00</time>
      </trkpt>
      <trkpt lat="43.53501" lon="1.1448">
        <ele>290</ele>
        <time>2017-12-16T15:43:11+01:00</time>
      </trkpt>
      <trkpt lat="43.53501" lon="1.14477">
        <ele>290</ele>
        <time>2017-12-16T15:43:13+01:00</time>
      </trkpt>
      <trkpt lat="43.53502" lon="1.14476">
        <ele>290</ele>
        <time>2017-12-16T15:43:14+01:00</time>
      </trkpt>
      <trkpt lat="43.53502" lon="1.14475">
        <ele>290</ele>
        <time>2017-12-16T15:43:15+01:00</time>
      </trkpt>
      <trkpt lat="43.53503" lon="1.14474">
        <ele>290</ele>
        <time>2017-12-16T15:43:16+01:00</time>
      </trkpt>
      <trkpt lat="43.53503" lon="1.14472">
        <ele>290</ele>
        <time>2017-12-16T15:43:17+01:00</time>
      </trkpt>
      <trkpt lat="43.53504" lon="1.1447">
        <ele>290</ele>
        <time>2017-12-16T15:43:18+01:00</time>
      </trkpt>
      <trkpt lat="43.53504" lon="1.14468">
        <ele>290</ele>
        <time>2017-12-16T15:43:19+01:00</time>
      </trkpt>
      <trkpt lat="43.53505" lon="1.14458">
        <ele>290</ele>
        <time>2017-12-16T15:43:26+01:00</time>
      </trkpt>
      <trkpt lat="43.53504" lon="1.14456">
        <ele>290</ele>
        <time>2017-12-16T15:43:27+01:00</time>
      </trkpt>
      <trkpt lat="43.53504" lon="1.14453">
        <ele>290</ele>
        <time>2017-12-16T15:43:28+01:00</time>
      </trkpt>
      <trkpt lat="43.53504" lon="1.14442">
        <ele>290</ele>
        <time>2017-12-16T15:43:35+01:00</time>
      </trkpt>
      <trkpt lat="43.53505" lon="1.1444">
        <ele>290</ele>
        <time>2017-12-16T15:43:36+01:00</time>
      </trkpt>
      <trkpt lat="43.53505" lon="1.14438">
        <ele>290</ele>
        <time>2017-12-16T15:43:37+01:00</time>
      </trkpt>
      <trkpt lat="43.53504" lon="1.14435">
        <ele>290</ele>
        <time>2017-12-16T15:43:38+01:00</time>
      </trkpt>
      <trkpt lat="43.53504" lon="1.14434">
        <ele>290</ele>
        <time>2017-12-16T15:43:39+01:00</time>
      </trkpt>
      <trkpt lat="43.53504" lon="1.14433">
        <ele>290</ele>
        <time>2017-12-16T15:43:40+01:00</time>
      </trkpt>
      <trkpt lat="43.53504" lon="1.14431">
        <ele>290</ele>
        <time>2017-12-16T15:43:41+01:00</time>
      </trkpt>
      <trkpt lat="43.53504" lon="1.1443">
        <ele>290</ele>
        <time>2017-12-16T15:43:42+01:00</time>
      </trkpt>
      <trkpt lat="43.53504" lon="1.14429">
        <ele>290</ele>
        <time>2017-12-16T15:43:43+01:00</time>
      </trkpt>
      <trkpt lat="43.53505" lon="1.14428">
        <ele>290</ele>
        <time>2017-12-16T15:43:44+01:00</time>
      </trkpt>
      <trkpt lat="43.53507" lon="1.14425">
        <ele>290</ele>
        <time>2017-12-16T15:43:46+01:00</time>
      </trkpt>
      <trkpt lat="43.53507" lon="1.14422">
        <ele>290</ele>
        <time>2017-12-16T15:43:47+01:00</time>
      </trkpt>
      <trkpt lat="43.53507" lon="1.1442">
        <ele>290</ele>
        <time>2017-12-16T15:43:48+01:00</time>
      </trkpt>
      <trkpt lat="43.53507" lon="1.14418">
        <ele>290</ele>
        <time>2017-12-16T15:43:49+01:00</time>
      </trkpt>
      <trkpt lat="43.53508" lon="1.14416">
        <ele>290</ele>
        <time>2017-12-16T15:43:50+01:00</time>
      </trkpt>
      <trkpt lat="43.53508" lon="1.14415">
        <ele>290</ele>
        <time>2017-12-16T15:43:51+01:00</time>
      </trkpt>
      <trkpt lat="43.53508" lon="1.14414">
        <ele>290</ele>
        <time>2017-12-16T15:43:52+01:00</time>
      </trkpt>
      <trkpt lat="43.53507" lon="1.14412">
        <ele>290</ele>
        <time>2017-12-16T15:43:53+01:00</time>
      </trkpt>
      <trkpt lat="43.53506" lon="1.1441">
        <ele>290</ele>
        <time>2017-12-16T15:43:54+01:00</time>
      </trkpt>
      <trkpt lat="43.53506" lon="1.14409">
        <ele>290</ele>
        <time>2017-12-16T15:43:55+01:00</time>
      </trkpt>
      <trkpt lat="43.53506" lon="1.14407">
        <ele>290</ele>
        <time>2017-12-16T15:43:56+01:00</time>
      </trkpt>
      <trkpt lat="43.53505" lon="1.14405">
        <ele>290</ele>
        <time>2017-12-16T15:43:57+01:00</time>
      </trkpt>
      <trkpt lat="43.53506" lon="1.14403">
        <ele>290</ele>
        <time>2017-12-16T15:43:58+01:00</time>
      </trkpt>
      <trkpt lat="43.53506" lon="1.14401">
        <ele>290</ele>
        <time>2017-12-16T15:43:59+01:00</time>
      </trkpt>
      <trkpt lat="43.53505" lon="1.14385">
        <ele>290</ele>
        <time>2017-12-16T15:44:09+01:00</time>
      </trkpt>
      <trkpt lat="43.53506" lon="1.14369">
        <ele>290</ele>
        <time>2017-12-16T15:44:18+01:00</time>
      </trkpt>
      <trkpt lat="43.53506" lon="1.14367">
        <ele>290</ele>
        <time>2017-12-16T15:44:19+01:00</time>
      </trkpt>
      <trkpt lat="43.53505" lon="1.14365">
        <ele>290</ele>
        <time>2017-12-16T15:44:20+01:00</time>
      </trkpt>
      <trkpt lat="43.53505" lon="1.14363">
        <ele>290</ele>
        <time>2017-12-16T15:44:21+01:00</time>
      </trkpt>
      <trkpt lat="43.53505" lon="1.14361">
        <ele>290</ele>
        <time>2017-12-16T15:44:22+01:00</time>
      </trkpt>
      <trkpt lat="43.53505" lon="1.1436">
        <ele>290</ele>
        <time>2017-12-16T15:44:23+01:00</time>
      </trkpt>
      <trkpt lat="43.53506" lon="1.14359">
        <ele>290</ele>
        <time>2017-12-16T15:44:24+01:00</time>
      </trkpt>
      <trkpt lat="43.53506" lon="1.14357">
        <ele>290</ele>
        <time>2017-12-16T15:44:25+01:00</time>
      </trkpt>
      <trkpt lat="43.53506" lon="1.14354">
        <ele>290</ele>
        <time>2017-12-16T15:44:26+01:00</time>
      </trkpt>
      <trkpt lat="43.53506" lon="1.1434">
        <ele>290</ele>
        <time>2017-12-16T15:44:35+01:00</time>
      </trkpt>
      <trkpt lat="43.53505" lon="1.14339">
        <ele>290</ele>
        <time>2017-12-16T15:44:36+01:00</time>
      </trkpt>
      <trkpt lat="43.53505" lon="1.14337">
        <ele>290</ele>
        <time>2017-12-16T15:44:37+01:00</time>
      </trkpt>
      <trkpt lat="43.53505" lon="1.14335">
        <ele>290</ele>
        <time>2017-12-16T15:44:38+01:00</time>
      </trkpt>
      <trkpt lat="43.53504" lon="1.14333">
        <ele>290</ele>
        <time>2017-12-16T15:44:39+01:00</time>
      </trkpt>
      <trkpt lat="43.53505" lon="1.14311">
        <ele>290</ele>
        <time>2017-12-16T15:44:51+01:00</time>
      </trkpt>
      <trkpt lat="43.53497" lon="1.14296">
        <ele>290</ele>
        <time>2017-12-16T15:45:03+01:00</time>
      </trkpt>
      <trkpt lat="43.53498" lon="1.14302">
        <ele>290</ele>
        <time>2017-12-16T15:45:06+01:00</time>
      </trkpt>
      <trkpt lat="43.53497" lon="1.14299">
        <ele>290</ele>
        <time>2017-12-16T15:45:09+01:00</time>
      </trkpt>
      <trkpt lat="43.53497" lon="1.14297">
        <ele>290</ele>
        <time>2017-12-16T15:45:10+01:00</time>
      </trkpt>
      <trkpt lat="43.53496" lon="1.14295">
        <ele>290</ele>
        <time>2017-12-16T15:45:11+01:00</time>
      </trkpt>
      <trkpt lat="43.53496" lon="1.14293">
        <ele>290</ele>
        <time>2017-12-16T15:45:12+01:00</time>
      </trkpt>
      <trkpt lat="43.53495" lon="1.1429">
        <ele>290</ele>
        <time>2017-12-16T15:45:13+01:00</time>
      </trkpt>
      <trkpt lat="43.53494" lon="1.14288">
        <ele>290</ele>
        <time>2017-12-16T15:45:14+01:00</time>
      </trkpt>
      <trkpt lat="43.53493" lon="1.14286">
        <ele>290</ele>
        <time>2017-12-16T15:45:15+01:00</time>
      </trkpt>
      <trkpt lat="43.53493" lon="1.14285">
        <ele>290</ele>
        <time>2017-12-16T15:45:16+01:00</time>
      </trkpt>
      <trkpt lat="43.53492" lon="1.14283">
        <ele>290</ele>
        <time>2017-12-16T15:45:17+01:00</time>
      </trkpt>
      <trkpt lat="43.53491" lon="1.14281">
        <ele>290</ele>
        <time>2017-12-16T15:45:18+01:00</time>
      </trkpt>
      <trkpt lat="43.53492" lon="1.14279">
        <ele>290</ele>
        <time>2017-12-16T15:45:19+01:00</time>
      </trkpt>
      <trkpt lat="43.53492" lon="1.14277">
        <ele>290</ele>
        <time>2017-12-16T15:45:20+01:00</time>
      </trkpt>
      <trkpt lat="43.53492" lon="1.14276">
        <ele>290</ele>
        <time>2017-12-16T15:45:21+01:00</time>
      </trkpt>
      <trkpt lat="43.53492" lon="1.14275">
        <ele>290</ele>
        <time>2017-12-16T15:45:22+01:00</time>
      </trkpt>
      <trkpt lat="43.53491" lon="1.14273">
        <ele>290</ele>
        <time>2017-12-16T15:45:23+01:00</time>
      </trkpt>
      <trkpt lat="43.53489" lon="1.14257">
        <ele>290</ele>
        <time>2017-12-16T15:45:33+01:00</time>
      </trkpt>
      <trkpt lat="43.53488" lon="1.14252">
        <ele>290</ele>
        <time>2017-12-16T15:45:36+01:00</time>
      </trkpt>
      <trkpt lat="43.53488" lon="1.14251">
        <ele>290</ele>
        <time>2017-12-16T15:45:37+01:00</time>
      </trkpt>
      <trkpt lat="43.53484" lon="1.14244">
        <ele>290</ele>
        <time>2017-12-16T15:45:41+01:00</time>
      </trkpt>
      <trkpt lat="43.53484" lon="1.14243">
        <ele>290</ele>
        <time>2017-12-16T15:45:42+01:00</time>
      </trkpt>
      <trkpt lat="43.53484" lon="1.14241">
        <ele>290</ele>
        <time>2017-12-16T15:45:43+01:00</time>
      </trkpt>
      <trkpt lat="43.53483" lon="1.1424">
        <ele>290</ele>
        <time>2017-12-16T15:45:44+01:00</time>
      </trkpt>
      <trkpt lat="43.53483" lon="1.14239">
        <ele>290</ele>
        <time>2017-12-16T15:45:45+01:00</time>
      </trkpt>
      <trkpt lat="43.53482" lon="1.14238">
        <ele>290</ele>
        <time>2017-12-16T15:45:46+01:00</time>
      </trkpt>
      <trkpt lat="43.53476" lon="1.1423">
        <ele>290</ele>
        <time>2017-12-16T15:45:58+01:00</time>
      </trkpt>
      <trkpt lat="43.53477" lon="1.14234">
        <ele>290</ele>
        <time>2017-12-16T15:46:12+01:00</time>
      </trkpt>
      <trkpt lat="43.5348" lon="1.14241">
        <ele>290</ele>
        <time>2017-12-16T15:46:39+01:00</time>
      </trkpt>
      <trkpt lat="43.5348" lon="1.14235">
        <ele>290</ele>
        <time>2017-12-16T15:46:42+01:00</time>
      </trkpt>
      <trkpt lat="43.5348" lon="1.14233">
        <ele>290</ele>
        <time>2017-12-16T15:46:43+01:00</time>
      </trkpt>
      <trkpt lat="43.53482" lon="1.14222">
        <ele>290</ele>
        <time>2017-12-16T15:46:47+01:00</time>
      </trkpt>
      <trkpt lat="43.53473" lon="1.14187">
        <ele>290</ele>
        <time>2017-12-16T15:47:05+01:00</time>
      </trkpt>
      <trkpt lat="43.53465" lon="1.14147">
        <ele>290</ele>
        <time>2017-12-16T15:47:24+01:00</time>
      </trkpt>
      <trkpt lat="43.53462" lon="1.1413">
        <ele>290</ele>
        <time>2017-12-16T15:47:34+01:00</time>
      </trkpt>
      <trkpt lat="43.53462" lon="1.14114">
        <ele>290</ele>
        <time>2017-12-16T15:47:43+01:00</time>
      </trkpt>
      <trkpt lat="43.53461" lon="1.14104">
        <ele>290</ele>
        <time>2017-12-16T15:47:49+01:00</time>
      </trkpt>
      <trkpt lat="43.53461" lon="1.14084">
        <ele>290</ele>
        <time>2017-12-16T15:48:00+01:00</time>
      </trkpt>
      <trkpt lat="43.53457" lon="1.14063">
        <ele>290</ele>
        <time>2017-12-16T15:48:12+01:00</time>
      </trkpt>
      <trkpt lat="43.53458" lon="1.14052">
        <ele>289</ele>
        <time>2017-12-16T15:48:17+01:00</time>
      </trkpt>
      <trkpt lat="43.53457" lon="1.14032">
        <ele>289</ele>
        <time>2017-12-16T15:48:28+01:00</time>
      </trkpt>
      <trkpt lat="43.53456" lon="1.1403">
        <ele>289</ele>
        <time>2017-12-16T15:48:29+01:00</time>
      </trkpt>
      <trkpt lat="43.53453" lon="1.14009">
        <ele>288</ele>
        <time>2017-12-16T15:48:40+01:00</time>
      </trkpt>
      <trkpt lat="43.53453" lon="1.14002">
        <ele>288</ele>
        <time>2017-12-16T15:48:45+01:00</time>
      </trkpt>
      <trkpt lat="43.53452" lon="1.13988">
        <ele>287</ele>
        <time>2017-12-16T15:48:53+01:00</time>
      </trkpt>
      <trkpt lat="43.53449" lon="1.13964">
        <ele>287</ele>
        <time>2017-12-16T15:49:06+01:00</time>
      </trkpt>
      <trkpt lat="43.53448" lon="1.13952">
        <ele>286</ele>
        <time>2017-12-16T15:49:12+01:00</time>
      </trkpt>
      <trkpt lat="43.53448" lon="1.1395">
        <ele>286</ele>
        <time>2017-12-16T15:49:13+01:00</time>
      </trkpt>
      <trkpt lat="43.53447" lon="1.13948">
        <ele>286</ele>
        <time>2017-12-16T15:49:14+01:00</time>
      </trkpt>
      <trkpt lat="43.53447" lon="1.13945">
        <ele>286</ele>
        <time>2017-12-16T15:49:16+01:00</time>
      </trkpt>
      <trkpt lat="43.53444" lon="1.13922">
        <ele>286</ele>
        <time>2017-12-16T15:49:29+01:00</time>
      </trkpt>
      <trkpt lat="43.53439" lon="1.13893">
        <ele>285</ele>
        <time>2017-12-16T15:49:45+01:00</time>
      </trkpt>
      <trkpt lat="43.53438" lon="1.13867">
        <ele>284</ele>
        <time>2017-12-16T15:50:01+01:00</time>
      </trkpt>
      <trkpt lat="43.53436" lon="1.13865">
        <ele>284</ele>
        <time>2017-12-16T15:50:03+01:00</time>
      </trkpt>
      <trkpt lat="43.53436" lon="1.13863">
        <ele>284</ele>
        <time>2017-12-16T15:50:04+01:00</time>
      </trkpt>
      <trkpt lat="43.53435" lon="1.13861">
        <ele>284</ele>
        <time>2017-12-16T15:50:05+01:00</time>
      </trkpt>
      <trkpt lat="43.53434" lon="1.1386">
        <ele>284</ele>
        <time>2017-12-16T15:50:06+01:00</time>
      </trkpt>
      <trkpt lat="43.53434" lon="1.13858">
        <ele>284</ele>
        <time>2017-12-16T15:50:07+01:00</time>
      </trkpt>
      <trkpt lat="43.53435" lon="1.13853">
        <ele>284</ele>
        <time>2017-12-16T15:50:11+01:00</time>
      </trkpt>
      <trkpt lat="43.53435" lon="1.13852">
        <ele>284</ele>
        <time>2017-12-16T15:50:12+01:00</time>
      </trkpt>
      <trkpt lat="43.53435" lon="1.13851">
        <ele>284</ele>
        <time>2017-12-16T15:50:13+01:00</time>
      </trkpt>
      <trkpt lat="43.53435" lon="1.13841">
        <ele>284</ele>
        <time>2017-12-16T15:50:26+01:00</time>
      </trkpt>
      <trkpt lat="43.53434" lon="1.13838">
        <ele>284</ele>
        <time>2017-12-16T15:50:28+01:00</time>
      </trkpt>
      <trkpt lat="43.53434" lon="1.13832">
        <ele>284</ele>
        <time>2017-12-16T15:50:36+01:00</time>
      </trkpt>
      <trkpt lat="43.53434" lon="1.13835">
        <ele>284</ele>
        <time>2017-12-16T15:50:40+01:00</time>
      </trkpt>
      <trkpt lat="43.53436" lon="1.1382">
        <ele>284</ele>
        <time>2017-12-16T15:50:58+01:00</time>
      </trkpt>
      <trkpt lat="43.5343" lon="1.13782">
        <ele>284</ele>
        <time>2017-12-16T15:51:20+01:00</time>
      </trkpt>
      <trkpt lat="43.5343" lon="1.1376">
        <ele>283</ele>
        <time>2017-12-16T15:51:36+01:00</time>
      </trkpt>
      <trkpt lat="43.5343" lon="1.13757">
        <ele>283</ele>
        <time>2017-12-16T15:51:37+01:00</time>
      </trkpt>
      <trkpt lat="43.5343" lon="1.13755">
        <ele>283</ele>
        <time>2017-12-16T15:51:38+01:00</time>
      </trkpt>
      <trkpt lat="43.53423" lon="1.1373">
        <ele>284</ele>
        <time>2017-12-16T15:51:53+01:00</time>
      </trkpt>
      <trkpt lat="43.53416" lon="1.137">
        <ele>285</ele>
        <time>2017-12-16T15:52:13+01:00</time>
      </trkpt>
      <trkpt lat="43.53414" lon="1.13669">
        <ele>285</ele>
        <time>2017-12-16T15:52:31+01:00</time>
      </trkpt>
      <trkpt lat="43.53412" lon="1.13641">
        <ele>285</ele>
        <time>2017-12-16T15:52:49+01:00</time>
      </trkpt>
      <trkpt lat="43.5341" lon="1.13607">
        <ele>285</ele>
        <time>2017-12-16T15:53:08+01:00</time>
      </trkpt>
      <trkpt lat="43.53412" lon="1.1358">
        <ele>285</ele>
        <time>2017-12-16T15:53:29+01:00</time>
      </trkpt>
      <trkpt lat="43.53414" lon="1.13554">
        <ele>286</ele>
        <time>2017-12-16T15:53:46+01:00</time>
      </trkpt>
      <trkpt lat="43.53413" lon="1.1353">
        <ele>286</ele>
        <time>2017-12-16T15:54:01+01:00</time>
      </trkpt>
      <trkpt lat="43.53413" lon="1.13529">
        <ele>286</ele>
        <time>2017-12-16T15:54:02+01:00</time>
      </trkpt>
      <trkpt lat="43.53412" lon="1.13512">
        <ele>285</ele>
        <time>2017-12-16T15:54:11+01:00</time>
      </trkpt>
      <trkpt lat="43.53412" lon="1.1351">
        <ele>285</ele>
        <time>2017-12-16T15:54:12+01:00</time>
      </trkpt>
      <trkpt lat="43.53411" lon="1.13505">
        <ele>285</ele>
        <time>2017-12-16T15:54:14+01:00</time>
      </trkpt>
      <trkpt lat="43.53411" lon="1.13504">
        <ele>285</ele>
        <time>2017-12-16T15:54:15+01:00</time>
      </trkpt>
      <trkpt lat="43.53413" lon="1.1348">
        <ele>286</ele>
        <time>2017-12-16T15:54:32+01:00</time>
      </trkpt>
      <trkpt lat="43.53421" lon="1.13439">
        <ele>286</ele>
        <time>2017-12-16T15:55:01+01:00</time>
      </trkpt>
      <trkpt lat="43.53419" lon="1.13424">
        <ele>286</ele>
        <time>2017-12-16T15:55:18+01:00</time>
      </trkpt>
      <trkpt lat="43.53424" lon="1.13428">
        <ele>285</ele>
        <time>2017-12-16T15:56:05+01:00</time>
      </trkpt>
      <trkpt lat="43.53421" lon="1.13408">
        <ele>286</ele>
        <time>2017-12-16T15:56:50+01:00</time>
      </trkpt>
      <trkpt lat="43.53421" lon="1.13403">
        <ele>286</ele>
        <time>2017-12-16T15:56:53+01:00</time>
      </trkpt>
      <trkpt lat="43.5342" lon="1.134">
        <ele>287</ele>
        <time>2017-12-16T15:56:54+01:00</time>
      </trkpt>
      <trkpt lat="43.53414" lon="1.13367">
        <ele>287</ele>
        <time>2017-12-16T15:57:13+01:00</time>
      </trkpt>
      <trkpt lat="43.53413" lon="1.13342">
        <ele>287</ele>
        <time>2017-12-16T15:57:30+01:00</time>
      </trkpt>
      <trkpt lat="43.53413" lon="1.1331">
        <ele>289</ele>
        <time>2017-12-16T15:57:49+01:00</time>
      </trkpt>
      <trkpt lat="43.53415" lon="1.1328">
        <ele>291</ele>
        <time>2017-12-16T15:58:08+01:00</time>
      </trkpt>
      <trkpt lat="43.53411" lon="1.13262">
        <ele>291</ele>
        <time>2017-12-16T15:58:19+01:00</time>
      </trkpt>
      <trkpt lat="43.53411" lon="1.1326">
        <ele>291</ele>
        <time>2017-12-16T15:58:20+01:00</time>
      </trkpt>
      <trkpt lat="43.53406" lon="1.13211">
        <ele>293</ele>
        <time>2017-12-16T15:58:49+01:00</time>
      </trkpt>
      <trkpt lat="43.53399" lon="1.1317">
        <ele>294</ele>
        <time>2017-12-16T15:59:13+01:00</time>
      </trkpt>
      <trkpt lat="43.53392" lon="1.13145">
        <ele>294</ele>
        <time>2017-12-16T15:59:34+01:00</time>
      </trkpt>
      <trkpt lat="43.53387" lon="1.13099">
        <ele>295</ele>
        <time>2017-12-16T16:00:01+01:00</time>
      </trkpt>
      <trkpt lat="43.53382" lon="1.13057">
        <ele>294</ele>
        <time>2017-12-16T16:00:27+01:00</time>
      </trkpt>
      <trkpt lat="43.53374" lon="1.13018">
        <ele>294</ele>
        <time>2017-12-16T16:00:51+01:00</time>
      </trkpt>
      <trkpt lat="43.53372" lon="1.12986">
        <ele>294</ele>
        <time>2017-12-16T16:01:12+01:00</time>
      </trkpt>
      <trkpt lat="43.53372" lon="1.12968">
        <ele>294</ele>
        <time>2017-12-16T16:01:41+01:00</time>
      </trkpt>
      <trkpt lat="43.53368" lon="1.12941">
        <ele>294</ele>
        <time>2017-12-16T16:02:02+01:00</time>
      </trkpt>
      <trkpt lat="43.53367" lon="1.12933">
        <ele>294</ele>
        <time>2017-12-16T16:02:08+01:00</time>
      </trkpt>
      <trkpt lat="43.53364" lon="1.1292">
        <ele>294</ele>
        <time>2017-12-16T16:02:17+01:00</time>
      </trkpt>
      <trkpt lat="43.53364" lon="1.12897">
        <ele>294</ele>
        <time>2017-12-16T16:02:41+01:00</time>
      </trkpt>
      <trkpt lat="43.53354" lon="1.12865">
        <ele>294</ele>
        <time>2017-12-16T16:03:03+01:00</time>
      </trkpt>
      <trkpt lat="43.53352" lon="1.12837">
        <ele>294</ele>
        <time>2017-12-16T16:03:22+01:00</time>
      </trkpt>
      <trkpt lat="43.53344" lon="1.12793">
        <ele>294</ele>
        <time>2017-12-16T16:03:45+01:00</time>
      </trkpt>
      <trkpt lat="43.53341" lon="1.12764">
        <ele>294</ele>
        <time>2017-12-16T16:04:04+01:00</time>
      </trkpt>
      <trkpt lat="43.53338" lon="1.12737">
        <ele>295</ele>
        <time>2017-12-16T16:04:24+01:00</time>
      </trkpt>
      <trkpt lat="43.53335" lon="1.12711">
        <ele>296</ele>
        <time>2017-12-16T16:04:42+01:00</time>
      </trkpt>
      <trkpt lat="43.53334" lon="1.12705">
        <ele>296</ele>
        <time>2017-12-16T16:04:45+01:00</time>
      </trkpt>
      <trkpt lat="43.53325" lon="1.12672">
        <ele>297</ele>
        <time>2017-12-16T16:05:04+01:00</time>
      </trkpt>
      <trkpt lat="43.53327" lon="1.12656">
        <ele>299</ele>
        <time>2017-12-16T16:05:22+01:00</time>
      </trkpt>
      <trkpt lat="43.53325" lon="1.12631">
        <ele>300</ele>
        <time>2017-12-16T16:05:40+01:00</time>
      </trkpt>
      <trkpt lat="43.53321" lon="1.12603">
        <ele>300</ele>
        <time>2017-12-16T16:05:56+01:00</time>
      </trkpt>
      <trkpt lat="43.5332" lon="1.12599">
        <ele>300</ele>
        <time>2017-12-16T16:05:57+01:00</time>
      </trkpt>
      <trkpt lat="43.53319" lon="1.12597">
        <ele>300</ele>
        <time>2017-12-16T16:05:58+01:00</time>
      </trkpt>
      <trkpt lat="43.53314" lon="1.12577">
        <ele>300</ele>
        <time>2017-12-16T16:06:08+01:00</time>
      </trkpt>
      <trkpt lat="43.53313" lon="1.12562">
        <ele>300</ele>
        <time>2017-12-16T16:06:17+01:00</time>
      </trkpt>
      <trkpt lat="43.53312" lon="1.12561">
        <ele>300</ele>
        <time>2017-12-16T16:06:18+01:00</time>
      </trkpt>
      <trkpt lat="43.5331" lon="1.12533">
        <ele>300</ele>
        <time>2017-12-16T16:06:35+01:00</time>
      </trkpt>
      <trkpt lat="43.53303" lon="1.12509">
        <ele>300</ele>
        <time>2017-12-16T16:06:57+01:00</time>
      </trkpt>
      <trkpt lat="43.53305" lon="1.12479">
        <ele>300</ele>
        <time>2017-12-16T16:07:17+01:00</time>
      </trkpt>
      <trkpt lat="43.533" lon="1.12454">
        <ele>300</ele>
        <time>2017-12-16T16:07:34+01:00</time>
      </trkpt>
      <trkpt lat="43.533" lon="1.12446">
        <ele>300</ele>
        <time>2017-12-16T16:07:38+01:00</time>
      </trkpt>
      <trkpt lat="43.53296" lon="1.12436">
        <ele>300</ele>
        <time>2017-12-16T16:07:43+01:00</time>
      </trkpt>
      <trkpt lat="43.53295" lon="1.12434">
        <ele>300</ele>
        <time>2017-12-16T16:07:44+01:00</time>
      </trkpt>
      <trkpt lat="43.53293" lon="1.12417">
        <ele>300</ele>
        <time>2017-12-16T16:07:54+01:00</time>
      </trkpt>
      <trkpt lat="43.53293" lon="1.12393">
        <ele>300</ele>
        <time>2017-12-16T16:08:12+01:00</time>
      </trkpt>
      <trkpt lat="43.53292" lon="1.12383">
        <ele>300</ele>
        <time>2017-12-16T16:08:17+01:00</time>
      </trkpt>
      <trkpt lat="43.5329" lon="1.12326">
        <ele>300</ele>
        <time>2017-12-16T16:08:48+01:00</time>
      </trkpt>
      <trkpt lat="43.53287" lon="1.12287">
        <ele>300</ele>
        <time>2017-12-16T16:09:11+01:00</time>
      </trkpt>
      <trkpt lat="43.53287" lon="1.12269">
        <ele>300</ele>
        <time>2017-12-16T16:09:21+01:00</time>
      </trkpt>
      <trkpt lat="43.53288" lon="1.12268">
        <ele>300</ele>
        <time>2017-12-16T16:09:22+01:00</time>
      </trkpt>
      <trkpt lat="43.53288" lon="1.12266">
        <ele>300</ele>
        <time>2017-12-16T16:09:23+01:00</time>
      </trkpt>
      <trkpt lat="43.53289" lon="1.12264">
        <ele>300</ele>
        <time>2017-12-16T16:09:24+01:00</time>
      </trkpt>
      <trkpt lat="43.53289" lon="1.12263">
        <ele>300</ele>
        <time>2017-12-16T16:09:25+01:00</time>
      </trkpt>
      <trkpt lat="43.53289" lon="1.12261">
        <ele>300</ele>
        <time>2017-12-16T16:09:26+01:00</time>
      </trkpt>
      <trkpt lat="43.53288" lon="1.12249">
        <ele>300</ele>
        <time>2017-12-16T16:09:34+01:00</time>
      </trkpt>
      <trkpt lat="43.53288" lon="1.12247">
        <ele>300</ele>
        <time>2017-12-16T16:09:35+01:00</time>
      </trkpt>
      <trkpt lat="43.53288" lon="1.12246">
        <ele>300</ele>
        <time>2017-12-16T16:09:36+01:00</time>
      </trkpt>
      <trkpt lat="43.53288" lon="1.12244">
        <ele>300</ele>
        <time>2017-12-16T16:09:37+01:00</time>
      </trkpt>
      <trkpt lat="43.53288" lon="1.12243">
        <ele>300</ele>
        <time>2017-12-16T16:09:38+01:00</time>
      </trkpt>
      <trkpt lat="43.5328" lon="1.12228">
        <ele>300</ele>
        <time>2017-12-16T16:09:53+01:00</time>
      </trkpt>
      <trkpt lat="43.5328" lon="1.12214">
        <ele>300</ele>
        <time>2017-12-16T16:10:26+01:00</time>
      </trkpt>
      <trkpt lat="43.53281" lon="1.1221">
        <ele>300</ele>
        <time>2017-12-16T16:10:29+01:00</time>
      </trkpt>
      <trkpt lat="43.53279" lon="1.12195">
        <ele>300</ele>
        <time>2017-12-16T16:10:40+01:00</time>
      </trkpt>
      <trkpt lat="43.5328" lon="1.12194">
        <ele>300</ele>
        <time>2017-12-16T16:10:41+01:00</time>
      </trkpt>
      <trkpt lat="43.53279" lon="1.12184">
        <ele>300</ele>
        <time>2017-12-16T16:10:47+01:00</time>
      </trkpt>
      <trkpt lat="43.5328" lon="1.12176">
        <ele>300</ele>
        <time>2017-12-16T16:10:51+01:00</time>
      </trkpt>
      <trkpt lat="43.5328" lon="1.1217">
        <ele>300</ele>
        <time>2017-12-16T16:10:54+01:00</time>
      </trkpt>
      <trkpt lat="43.53276" lon="1.12158">
        <ele>300</ele>
        <time>2017-12-16T16:11:02+01:00</time>
      </trkpt>
      <trkpt lat="43.53276" lon="1.12156">
        <ele>299</ele>
        <time>2017-12-16T16:11:03+01:00</time>
      </trkpt>
      <trkpt lat="43.53277" lon="1.12145">
        <ele>299</ele>
        <time>2017-12-16T16:11:09+01:00</time>
      </trkpt>
      <trkpt lat="43.53277" lon="1.1212">
        <ele>299</ele>
        <time>2017-12-16T16:11:24+01:00</time>
      </trkpt>
      <trkpt lat="43.53275" lon="1.12105">
        <ele>299</ele>
        <time>2017-12-16T16:11:32+01:00</time>
      </trkpt>
      <trkpt lat="43.53275" lon="1.12103">
        <ele>299</ele>
        <time>2017-12-16T16:11:33+01:00</time>
      </trkpt>
      <trkpt lat="43.53275" lon="1.12098">
        <ele>299</ele>
        <time>2017-12-16T16:11:36+01:00</time>
      </trkpt>
      <trkpt lat="43.53273" lon="1.12075">
        <ele>298</ele>
        <time>2017-12-16T16:11:50+01:00</time>
      </trkpt>
      <trkpt lat="43.5327" lon="1.12049">
        <ele>297</ele>
        <time>2017-12-16T16:12:05+01:00</time>
      </trkpt>
      <trkpt lat="43.53265" lon="1.1202">
        <ele>297</ele>
        <time>2017-12-16T16:12:21+01:00</time>
      </trkpt>
      <trkpt lat="43.53262" lon="1.1201">
        <ele>296</ele>
        <time>2017-12-16T16:12:26+01:00</time>
      </trkpt>
      <trkpt lat="43.53261" lon="1.12008">
        <ele>296</ele>
        <time>2017-12-16T16:12:27+01:00</time>
      </trkpt>
      <trkpt lat="43.5326" lon="1.12007">
        <ele>296</ele>
        <time>2017-12-16T16:12:28+01:00</time>
      </trkpt>
      <trkpt lat="43.53259" lon="1.12005">
        <ele>296</ele>
        <time>2017-12-16T16:12:29+01:00</time>
      </trkpt>
      <trkpt lat="43.53259" lon="1.12004">
        <ele>296</ele>
        <time>2017-12-16T16:12:30+01:00</time>
      </trkpt>
      <trkpt lat="43.53259" lon="1.12002">
        <ele>296</ele>
        <time>2017-12-16T16:12:31+01:00</time>
      </trkpt>
      <trkpt lat="43.53259" lon="1.12">
        <ele>296</ele>
        <time>2017-12-16T16:12:32+01:00</time>
      </trkpt>
      <trkpt lat="43.53259" lon="1.11998">
        <ele>296</ele>
        <time>2017-12-16T16:12:33+01:00</time>
      </trkpt>
      <trkpt lat="43.53258" lon="1.11992">
        <ele>296</ele>
        <time>2017-12-16T16:12:37+01:00</time>
      </trkpt>
      <trkpt lat="43.53257" lon="1.11987">
        <ele>295</ele>
        <time>2017-12-16T16:12:40+01:00</time>
      </trkpt>
      <trkpt lat="43.53257" lon="1.11985">
        <ele>295</ele>
        <time>2017-12-16T16:12:41+01:00</time>
      </trkpt>
      <trkpt lat="43.53256" lon="1.11983">
        <ele>295</ele>
        <time>2017-12-16T16:12:42+01:00</time>
      </trkpt>
      <trkpt lat="43.53256" lon="1.11981">
        <ele>295</ele>
        <time>2017-12-16T16:12:43+01:00</time>
      </trkpt>
      <trkpt lat="43.53255" lon="1.1198">
        <ele>295</ele>
        <time>2017-12-16T16:12:44+01:00</time>
      </trkpt>
      <trkpt lat="43.53255" lon="1.11978">
        <ele>295</ele>
        <time>2017-12-16T16:12:45+01:00</time>
      </trkpt>
      <trkpt lat="43.53255" lon="1.11976">
        <ele>295</ele>
        <time>2017-12-16T16:12:46+01:00</time>
      </trkpt>
      <trkpt lat="43.53254" lon="1.11974">
        <ele>295</ele>
        <time>2017-12-16T16:12:47+01:00</time>
      </trkpt>
      <trkpt lat="43.5325" lon="1.11954">
        <ele>295</ele>
        <time>2017-12-16T16:12:59+01:00</time>
      </trkpt>
      <trkpt lat="43.5325" lon="1.11952">
        <ele>295</ele>
        <time>2017-12-16T16:13:00+01:00</time>
      </trkpt>
      <trkpt lat="43.53249" lon="1.1195">
        <ele>295</ele>
        <time>2017-12-16T16:13:01+01:00</time>
      </trkpt>
      <trkpt lat="43.53249" lon="1.11949">
        <ele>295</ele>
        <time>2017-12-16T16:13:02+01:00</time>
      </trkpt>
      <trkpt lat="43.53249" lon="1.11947">
        <ele>295</ele>
        <time>2017-12-16T16:13:03+01:00</time>
      </trkpt>
      <trkpt lat="43.53243" lon="1.11921">
        <ele>295</ele>
        <time>2017-12-16T16:13:19+01:00</time>
      </trkpt>
      <trkpt lat="43.5324" lon="1.11908">
        <ele>295</ele>
        <time>2017-12-16T16:13:26+01:00</time>
      </trkpt>
      <trkpt lat="43.5324" lon="1.11907">
        <ele>295</ele>
        <time>2017-12-16T16:13:27+01:00</time>
      </trkpt>
      <trkpt lat="43.53235" lon="1.11882">
        <ele>296</ele>
        <time>2017-12-16T16:13:44+01:00</time>
      </trkpt>
      <trkpt lat="43.53232" lon="1.11859">
        <ele>296</ele>
        <time>2017-12-16T16:13:58+01:00</time>
      </trkpt>
      <trkpt lat="43.53228" lon="1.11847">
        <ele>296</ele>
        <time>2017-12-16T16:14:05+01:00</time>
      </trkpt>
      <trkpt lat="43.53221" lon="1.11824">
        <ele>296</ele>
        <time>2017-12-16T16:14:19+01:00</time>
      </trkpt>
      <trkpt lat="43.5322" lon="1.11818">
        <ele>296</ele>
        <time>2017-12-16T16:14:23+01:00</time>
      </trkpt>
      <trkpt lat="43.53212" lon="1.11796">
        <ele>296</ele>
        <time>2017-12-16T16:14:37+01:00</time>
      </trkpt>
      <trkpt lat="43.53204" lon="1.11778">
        <ele>297</ele>
        <time>2017-12-16T16:14:49+01:00</time>
      </trkpt>
      <trkpt lat="43.53194" lon="1.11761">
        <ele>298</ele>
        <time>2017-12-16T16:15:02+01:00</time>
      </trkpt>
      <trkpt lat="43.53181" lon="1.11745">
        <ele>298</ele>
        <time>2017-12-16T16:15:16+01:00</time>
      </trkpt>
      <trkpt lat="43.53169" lon="1.11727">
        <ele>300</ele>
        <time>2017-12-16T16:15:30+01:00</time>
      </trkpt>
      <trkpt lat="43.53154" lon="1.11701">
        <ele>300</ele>
        <time>2017-12-16T16:15:47+01:00</time>
      </trkpt>
      <trkpt lat="43.53144" lon="1.11689">
        <ele>300</ele>
        <time>2017-12-16T16:15:59+01:00</time>
      </trkpt>
      <trkpt lat="43.53142" lon="1.11684">
        <ele>300</ele>
        <time>2017-12-16T16:16:03+01:00</time>
      </trkpt>
      <trkpt lat="43.53137" lon="1.11678">
        <ele>300</ele>
        <time>2017-12-16T16:16:08+01:00</time>
      </trkpt>
      <trkpt lat="43.53136" lon="1.11677">
        <ele>300</ele>
        <time>2017-12-16T16:16:09+01:00</time>
      </trkpt>
      <trkpt lat="43.53122" lon="1.11655">
        <ele>300</ele>
        <time>2017-12-16T16:16:24+01:00</time>
      </trkpt>
      <trkpt lat="43.5312" lon="1.11652">
        <ele>300</ele>
        <time>2017-12-16T16:16:26+01:00</time>
      </trkpt>
      <trkpt lat="43.53119" lon="1.1165">
        <ele>300</ele>
        <time>2017-12-16T16:16:27+01:00</time>
      </trkpt>
      <trkpt lat="43.53117" lon="1.11649">
        <ele>300</ele>
        <time>2017-12-16T16:16:28+01:00</time>
      </trkpt>
      <trkpt lat="43.53116" lon="1.11648">
        <ele>300</ele>
        <time>2017-12-16T16:16:29+01:00</time>
      </trkpt>
      <trkpt lat="43.53115" lon="1.11646">
        <ele>300</ele>
        <time>2017-12-16T16:16:30+01:00</time>
      </trkpt>
      <trkpt lat="43.531" lon="1.11624">
        <ele>300</ele>
        <time>2017-12-16T16:16:47+01:00</time>
      </trkpt>
      <trkpt lat="43.53088" lon="1.1161">
        <ele>300</ele>
        <time>2017-12-16T16:17:01+01:00</time>
      </trkpt>
      <trkpt lat="43.53074" lon="1.11583">
        <ele>300</ele>
        <time>2017-12-16T16:17:19+01:00</time>
      </trkpt>
      <trkpt lat="43.53074" lon="1.11581">
        <ele>300</ele>
        <time>2017-12-16T16:17:20+01:00</time>
      </trkpt>
      <trkpt lat="43.53073" lon="1.11579">
        <ele>300</ele>
        <time>2017-12-16T16:17:21+01:00</time>
      </trkpt>
      <trkpt lat="43.53073" lon="1.11577">
        <ele>300</ele>
        <time>2017-12-16T16:17:22+01:00</time>
      </trkpt>
      <trkpt lat="43.53073" lon="1.11575">
        <ele>300</ele>
        <time>2017-12-16T16:17:23+01:00</time>
      </trkpt>
      <trkpt lat="43.53072" lon="1.11574">
        <ele>300</ele>
        <time>2017-12-16T16:17:24+01:00</time>
      </trkpt>
      <trkpt lat="43.5307" lon="1.11568">
        <ele>300</ele>
        <time>2017-12-16T16:17:28+01:00</time>
      </trkpt>
      <trkpt lat="43.53069" lon="1.11566">
        <ele>300</ele>
        <time>2017-12-16T16:17:29+01:00</time>
      </trkpt>
      <trkpt lat="43.53069" lon="1.11565">
        <ele>300</ele>
        <time>2017-12-16T16:17:30+01:00</time>
      </trkpt>
      <trkpt lat="43.53065" lon="1.11558">
        <ele>300</ele>
        <time>2017-12-16T16:17:35+01:00</time>
      </trkpt>
      <trkpt lat="43.53065" lon="1.11557">
        <ele>300</ele>
        <time>2017-12-16T16:17:36+01:00</time>
      </trkpt>
      <trkpt lat="43.53056" lon="1.11538">
        <ele>300</ele>
        <time>2017-12-16T16:17:51+01:00</time>
      </trkpt>
      <trkpt lat="43.53055" lon="1.11526">
        <ele>300</ele>
        <time>2017-12-16T16:18:06+01:00</time>
      </trkpt>
      <trkpt lat="43.53055" lon="1.11527">
        <ele>300</ele>
        <time>2017-12-16T16:18:26+01:00</time>
      </trkpt>
      <trkpt lat="43.53049" lon="1.11517">
        <ele>300</ele>
        <time>2017-12-16T16:18:41+01:00</time>
      </trkpt>
      <trkpt lat="43.53041" lon="1.11497">
        <ele>300</ele>
        <time>2017-12-16T16:18:53+01:00</time>
      </trkpt>
      <trkpt lat="43.53034" lon="1.11477">
        <ele>300</ele>
        <time>2017-12-16T16:19:06+01:00</time>
      </trkpt>
      <trkpt lat="43.53033" lon="1.11475">
        <ele>300</ele>
        <time>2017-12-16T16:19:07+01:00</time>
      </trkpt>
      <trkpt lat="43.53033" lon="1.11474">
        <ele>300</ele>
        <time>2017-12-16T16:19:08+01:00</time>
      </trkpt>
      <trkpt lat="43.53032" lon="1.11472">
        <ele>300</ele>
        <time>2017-12-16T16:19:09+01:00</time>
      </trkpt>
      <trkpt lat="43.53031" lon="1.1147">
        <ele>300</ele>
        <time>2017-12-16T16:19:10+01:00</time>
      </trkpt>
      <trkpt lat="43.53024" lon="1.11455">
        <ele>300</ele>
        <time>2017-12-16T16:19:22+01:00</time>
      </trkpt>
      <trkpt lat="43.5302" lon="1.11443">
        <ele>300</ele>
        <time>2017-12-16T16:19:31+01:00</time>
      </trkpt>
      <trkpt lat="43.53019" lon="1.11442">
        <ele>300</ele>
        <time>2017-12-16T16:19:32+01:00</time>
      </trkpt>
      <trkpt lat="43.53018" lon="1.11435">
        <ele>300</ele>
        <time>2017-12-16T16:19:37+01:00</time>
      </trkpt>
      <trkpt lat="43.53018" lon="1.11433">
        <ele>300</ele>
        <time>2017-12-16T16:19:38+01:00</time>
      </trkpt>
      <trkpt lat="43.53008" lon="1.11412">
        <ele>301</ele>
        <time>2017-12-16T16:19:51+01:00</time>
      </trkpt>
      <trkpt lat="43.52998" lon="1.11396">
        <ele>301</ele>
        <time>2017-12-16T16:20:06+01:00</time>
      </trkpt>
      <trkpt lat="43.52993" lon="1.11382">
        <ele>301</ele>
        <time>2017-12-16T16:20:27+01:00</time>
      </trkpt>
      <trkpt lat="43.52989" lon="1.11374">
        <ele>301</ele>
        <time>2017-12-16T16:21:16+01:00</time>
      </trkpt>
      <trkpt lat="43.52989" lon="1.11376">
        <ele>301</ele>
        <time>2017-12-16T16:21:45+01:00</time>
      </trkpt>
      <trkpt lat="43.52995" lon="1.11367">
        <ele>301</ele>
        <time>2017-12-16T16:22:31+01:00</time>
      </trkpt>
      <trkpt lat="43.52977" lon="1.11337">
        <ele>302</ele>
        <time>2017-12-16T16:22:54+01:00</time>
      </trkpt>
      <trkpt lat="43.52967" lon="1.11306">
        <ele>302</ele>
        <time>2017-12-16T16:23:15+01:00</time>
      </trkpt>
      <trkpt lat="43.52947" lon="1.11273">
        <ele>304</ele>
        <time>2017-12-16T16:23:35+01:00</time>
      </trkpt>
      <trkpt lat="43.5294" lon="1.11262">
        <ele>304</ele>
        <time>2017-12-16T16:23:44+01:00</time>
      </trkpt>
      <trkpt lat="43.52939" lon="1.11261">
        <ele>304</ele>
        <time>2017-12-16T16:23:45+01:00</time>
      </trkpt>
      <trkpt lat="43.52937" lon="1.11255">
        <ele>304</ele>
        <time>2017-12-16T16:23:58+01:00</time>
      </trkpt>
      <trkpt lat="43.52928" lon="1.11234">
        <ele>305</ele>
        <time>2017-12-16T16:24:29+01:00</time>
      </trkpt>
      <trkpt lat="43.52927" lon="1.11228">
        <ele>305</ele>
        <time>2017-12-16T16:24:36+01:00</time>
      </trkpt>
      <trkpt lat="43.52925" lon="1.11222">
        <ele>305</ele>
        <time>2017-12-16T16:24:40+01:00</time>
      </trkpt>
      <trkpt lat="43.5292" lon="1.11208">
        <ele>305</ele>
        <time>2017-12-16T16:24:50+01:00</time>
      </trkpt>
      <trkpt lat="43.5291" lon="1.11187">
        <ele>305</ele>
        <time>2017-12-16T16:25:05+01:00</time>
      </trkpt>
      <trkpt lat="43.52908" lon="1.11175">
        <ele>305</ele>
        <time>2017-12-16T16:25:15+01:00</time>
      </trkpt>
      <trkpt lat="43.52907" lon="1.11173">
        <ele>305</ele>
        <time>2017-12-16T16:25:16+01:00</time>
      </trkpt>
      <trkpt lat="43.52902" lon="1.11157">
        <ele>305</ele>
        <time>2017-12-16T16:25:27+01:00</time>
      </trkpt>
      <trkpt lat="43.52901" lon="1.11155">
        <ele>305</ele>
        <time>2017-12-16T16:25:28+01:00</time>
      </trkpt>
      <trkpt lat="43.52901" lon="1.11153">
        <ele>305</ele>
        <time>2017-12-16T16:25:29+01:00</time>
      </trkpt>
      <trkpt lat="43.52899" lon="1.11147">
        <ele>305</ele>
        <time>2017-12-16T16:25:33+01:00</time>
      </trkpt>
      <trkpt lat="43.52899" lon="1.11146">
        <ele>305</ele>
        <time>2017-12-16T16:25:34+01:00</time>
      </trkpt>
      <trkpt lat="43.52891" lon="1.11123">
        <ele>305</ele>
        <time>2017-12-16T16:25:53+01:00</time>
      </trkpt>
      <trkpt lat="43.5288" lon="1.11096">
        <ele>305</ele>
        <time>2017-12-16T16:26:12+01:00</time>
      </trkpt>
      <trkpt lat="43.52868" lon="1.1106">
        <ele>305</ele>
        <time>2017-12-16T16:26:37+01:00</time>
      </trkpt>
      <trkpt lat="43.52854" lon="1.11018">
        <ele>305</ele>
        <time>2017-12-16T16:27:03+01:00</time>
      </trkpt>
      <trkpt lat="43.52843" lon="1.10993">
        <ele>305</ele>
        <time>2017-12-16T16:27:19+01:00</time>
      </trkpt>
      <trkpt lat="43.52843" lon="1.10992">
        <ele>305</ele>
        <time>2017-12-16T16:27:20+01:00</time>
      </trkpt>
      <trkpt lat="43.52835" lon="1.10968">
        <ele>305</ele>
        <time>2017-12-16T16:27:38+01:00</time>
      </trkpt>
      <trkpt lat="43.52815" lon="1.10947">
        <ele>305</ele>
        <time>2017-12-16T16:27:57+01:00</time>
      </trkpt>
      <trkpt lat="43.52802" lon="1.10947">
        <ele>305</ele>
        <time>2017-12-16T16:28:13+01:00</time>
      </trkpt>
      <trkpt lat="43.52801" lon="1.10948">
        <ele>305</ele>
        <time>2017-12-16T16:28:14+01:00</time>
      </trkpt>
      <trkpt lat="43.528" lon="1.10949">
        <ele>305</ele>
        <time>2017-12-16T16:28:15+01:00</time>
      </trkpt>
      <trkpt lat="43.52793" lon="1.10952">
        <ele>305</ele>
        <time>2017-12-16T16:28:25+01:00</time>
      </trkpt>
      <trkpt lat="43.52792" lon="1.10953">
        <ele>305</ele>
        <time>2017-12-16T16:28:26+01:00</time>
      </trkpt>
      <trkpt lat="43.52791" lon="1.10954">
        <ele>305</ele>
        <time>2017-12-16T16:28:27+01:00</time>
      </trkpt>
      <trkpt lat="43.5279" lon="1.10954">
        <ele>305</ele>
        <time>2017-12-16T16:28:28+01:00</time>
      </trkpt>
      <trkpt lat="43.52788" lon="1.10955">
        <ele>305</ele>
        <time>2017-12-16T16:28:29+01:00</time>
      </trkpt>
      <trkpt lat="43.52787" lon="1.10955">
        <ele>305</ele>
        <time>2017-12-16T16:28:30+01:00</time>
      </trkpt>
      <trkpt lat="43.52786" lon="1.10956">
        <ele>305</ele>
        <time>2017-12-16T16:28:31+01:00</time>
      </trkpt>
      <trkpt lat="43.52785" lon="1.10957">
        <ele>305</ele>
        <time>2017-12-16T16:28:32+01:00</time>
      </trkpt>
      <trkpt lat="43.52784" lon="1.10958">
        <ele>305</ele>
        <time>2017-12-16T16:28:33+01:00</time>
      </trkpt>
      <trkpt lat="43.52782" lon="1.10958">
        <ele>305</ele>
        <time>2017-12-16T16:28:34+01:00</time>
      </trkpt>
      <trkpt lat="43.52781" lon="1.10958">
        <ele>305</ele>
        <time>2017-12-16T16:28:35+01:00</time>
      </trkpt>
      <trkpt lat="43.52775" lon="1.10961">
        <ele>305</ele>
        <time>2017-12-16T16:28:44+01:00</time>
      </trkpt>
      <trkpt lat="43.52749" lon="1.10966">
        <ele>305</ele>
        <time>2017-12-16T16:29:04+01:00</time>
      </trkpt>
      <trkpt lat="43.52726" lon="1.1097">
        <ele>305</ele>
        <time>2017-12-16T16:29:21+01:00</time>
      </trkpt>
      <trkpt lat="43.52704" lon="1.10978">
        <ele>305</ele>
        <time>2017-12-16T16:29:39+01:00</time>
      </trkpt>
      <trkpt lat="43.52688" lon="1.10983">
        <ele>304</ele>
        <time>2017-12-16T16:29:50+01:00</time>
      </trkpt>
      <trkpt lat="43.5267" lon="1.1099">
        <ele>305</ele>
        <time>2017-12-16T16:30:06+01:00</time>
      </trkpt>
      <trkpt lat="43.52663" lon="1.10991">
        <ele>305</ele>
        <time>2017-12-16T16:30:11+01:00</time>
      </trkpt>
      <trkpt lat="43.52661" lon="1.10991">
        <ele>305</ele>
        <time>2017-12-16T16:30:12+01:00</time>
      </trkpt>
      <trkpt lat="43.5266" lon="1.10991">
        <ele>305</ele>
        <time>2017-12-16T16:30:13+01:00</time>
      </trkpt>
      <trkpt lat="43.52658" lon="1.10991">
        <ele>305</ele>
        <time>2017-12-16T16:30:14+01:00</time>
      </trkpt>
      <trkpt lat="43.52657" lon="1.10992">
        <ele>305</ele>
        <time>2017-12-16T16:30:15+01:00</time>
      </trkpt>
      <trkpt lat="43.52651" lon="1.10999">
        <ele>305</ele>
        <time>2017-12-16T16:30:30+01:00</time>
      </trkpt>
      <trkpt lat="43.52636" lon="1.11005">
        <ele>305</ele>
        <time>2017-12-16T16:30:51+01:00</time>
      </trkpt>
      <trkpt lat="43.52631" lon="1.11006">
        <ele>305</ele>
        <time>2017-12-16T16:30:55+01:00</time>
      </trkpt>
      <trkpt lat="43.52629" lon="1.11006">
        <ele>305</ele>
        <time>2017-12-16T16:30:56+01:00</time>
      </trkpt>
      <trkpt lat="43.52628" lon="1.11007">
        <ele>305</ele>
        <time>2017-12-16T16:30:57+01:00</time>
      </trkpt>
      <trkpt lat="43.52614" lon="1.11022">
        <ele>305</ele>
        <time>2017-12-16T16:31:14+01:00</time>
      </trkpt>
      <trkpt lat="43.52613" lon="1.11028">
        <ele>305</ele>
        <time>2017-12-16T16:31:17+01:00</time>
      </trkpt>
      <trkpt lat="43.52607" lon="1.1104">
        <ele>305</ele>
        <time>2017-12-16T16:31:25+01:00</time>
      </trkpt>
      <trkpt lat="43.52599" lon="1.11059">
        <ele>305</ele>
        <time>2017-12-16T16:31:41+01:00</time>
      </trkpt>
      <trkpt lat="43.52583" lon="1.11073">
        <ele>304</ele>
        <time>2017-12-16T16:31:59+01:00</time>
      </trkpt>
      <trkpt lat="43.52569" lon="1.11108">
        <ele>303</ele>
        <time>2017-12-16T16:32:22+01:00</time>
      </trkpt>
      <trkpt lat="43.52548" lon="1.11146">
        <ele>302</ele>
        <time>2017-12-16T16:32:48+01:00</time>
      </trkpt>
      <trkpt lat="43.52531" lon="1.11175">
        <ele>301</ele>
        <time>2017-12-16T16:33:12+01:00</time>
      </trkpt>
      <trkpt lat="43.5251" lon="1.11215">
        <ele>299</ele>
        <time>2017-12-16T16:33:40+01:00</time>
      </trkpt>
      <trkpt lat="43.52503" lon="1.1123">
        <ele>298</ele>
        <time>2017-12-16T16:33:55+01:00</time>
      </trkpt>
      <trkpt lat="43.52491" lon="1.11234">
        <ele>296</ele>
        <time>2017-12-16T16:34:07+01:00</time>
      </trkpt>
      <trkpt lat="43.52465" lon="1.11242">
        <ele>293</ele>
        <time>2017-12-16T16:34:29+01:00</time>
      </trkpt>
      <trkpt lat="43.52451" lon="1.11244">
        <ele>291</ele>
        <time>2017-12-16T16:34:45+01:00</time>
      </trkpt>
      <trkpt lat="43.52431" lon="1.11247">
        <ele>288</ele>
        <time>2017-12-16T16:35:02+01:00</time>
      </trkpt>
      <trkpt lat="43.52408" lon="1.11252">
        <ele>284</ele>
        <time>2017-12-16T16:35:22+01:00</time>
      </trkpt>
      <trkpt lat="43.52405" lon="1.11262">
        <ele>283</ele>
        <time>2017-12-16T16:35:33+01:00</time>
      </trkpt>
      <trkpt lat="43.52401" lon="1.11302">
        <ele>281</ele>
        <time>2017-12-16T16:35:58+01:00</time>
      </trkpt>
      <trkpt lat="43.5242" lon="1.1134">
        <ele>282</ele>
        <time>2017-12-16T16:36:26+01:00</time>
      </trkpt>
      <trkpt lat="43.52427" lon="1.1135">
        <ele>283</ele>
        <time>2017-12-16T16:36:53+01:00</time>
      </trkpt>
      <trkpt lat="43.52428" lon="1.11364">
        <ele>282</ele>
        <time>2017-12-16T16:37:34+01:00</time>
      </trkpt>
      <trkpt lat="43.52432" lon="1.11373">
        <ele>282</ele>
        <time>2017-12-16T16:37:41+01:00</time>
      </trkpt>
      <trkpt lat="43.52436" lon="1.11379">
        <ele>282</ele>
        <time>2017-12-16T16:37:46+01:00</time>
      </trkpt>
      <trkpt lat="43.52437" lon="1.11384">
        <ele>282</ele>
        <time>2017-12-16T16:37:49+01:00</time>
      </trkpt>
      <trkpt lat="43.52439" lon="1.11392">
        <ele>281</ele>
        <time>2017-12-16T16:37:54+01:00</time>
      </trkpt>
      <trkpt lat="43.5244" lon="1.11395">
        <ele>281</ele>
        <time>2017-12-16T16:37:56+01:00</time>
      </trkpt>
      <trkpt lat="43.52441" lon="1.1141">
        <ele>279</ele>
        <time>2017-12-16T16:38:06+01:00</time>
      </trkpt>
      <trkpt lat="43.52439" lon="1.11432">
        <ele>277</ele>
        <time>2017-12-16T16:38:20+01:00</time>
      </trkpt>
      <trkpt lat="43.52446" lon="1.11451">
        <ele>275</ele>
        <time>2017-12-16T16:38:37+01:00</time>
      </trkpt>
      <trkpt lat="43.52445" lon="1.11458">
        <ele>274</ele>
        <time>2017-12-16T16:38:55+01:00</time>
      </trkpt>
      <trkpt lat="43.52445" lon="1.11465">
        <ele>273</ele>
        <time>2017-12-16T16:39:26+01:00</time>
      </trkpt>
      <trkpt lat="43.52446" lon="1.11475">
        <ele>272</ele>
        <time>2017-12-16T16:39:47+01:00</time>
      </trkpt>
      <trkpt lat="43.52449" lon="1.11484">
        <ele>271</ele>
        <time>2017-12-16T16:40:14+01:00</time>
      </trkpt>
      <trkpt lat="43.52458" lon="1.11496">
        <ele>269</ele>
        <time>2017-12-16T16:40:38+01:00</time>
      </trkpt>
      <trkpt lat="43.52462" lon="1.11504">
        <ele>269</ele>
        <time>2017-12-16T16:40:45+01:00</time>
      </trkpt>
      <trkpt lat="43.52469" lon="1.11534">
        <ele>267</ele>
        <time>2017-12-16T16:41:09+01:00</time>
      </trkpt>
      <trkpt lat="43.52459" lon="1.11569">
        <ele>265</ele>
        <time>2017-12-16T16:41:38+01:00</time>
      </trkpt>
      <trkpt lat="43.52458" lon="1.11571">
        <ele>265</ele>
        <time>2017-12-16T16:41:39+01:00</time>
      </trkpt>
      <trkpt lat="43.52449" lon="1.11587">
        <ele>263</ele>
        <time>2017-12-16T16:41:59+01:00</time>
      </trkpt>
      <trkpt lat="43.52441" lon="1.11631">
        <ele>261</ele>
        <time>2017-12-16T16:42:25+01:00</time>
      </trkpt>
      <trkpt lat="43.52441" lon="1.1167">
        <ele>260</ele>
        <time>2017-12-16T16:42:52+01:00</time>
      </trkpt>
      <trkpt lat="43.52424" lon="1.11681">
        <ele>259</ele>
        <time>2017-12-16T16:43:05+01:00</time>
      </trkpt>
      <trkpt lat="43.52393" lon="1.11688">
        <ele>257</ele>
        <time>2017-12-16T16:43:28+01:00</time>
      </trkpt>
      <trkpt lat="43.52385" lon="1.11693">
        <ele>256</ele>
        <time>2017-12-16T16:43:34+01:00</time>
      </trkpt>
      <trkpt lat="43.52374" lon="1.1171">
        <ele>255</ele>
        <time>2017-12-16T16:43:55+01:00</time>
      </trkpt>
      <trkpt lat="43.52367" lon="1.11713">
        <ele>255</ele>
        <time>2017-12-16T16:44:04+01:00</time>
      </trkpt>
      <trkpt lat="43.52352" lon="1.11739">
        <ele>253</ele>
        <time>2017-12-16T16:44:26+01:00</time>
      </trkpt>
      <trkpt lat="43.52354" lon="1.11758">
        <ele>252</ele>
        <time>2017-12-16T16:44:38+01:00</time>
      </trkpt>
      <trkpt lat="43.52355" lon="1.1176">
        <ele>252</ele>
        <time>2017-12-16T16:44:40+01:00</time>
      </trkpt>
      <trkpt lat="43.52358" lon="1.11766">
        <ele>252</ele>
        <time>2017-12-16T16:44:49+01:00</time>
      </trkpt>
      <trkpt lat="43.5236" lon="1.11766">
        <ele>252</ele>
        <time>2017-12-16T16:44:55+01:00</time>
      </trkpt>
      <trkpt lat="43.52352" lon="1.11773">
        <ele>252</ele>
        <time>2017-12-16T16:45:11+01:00</time>
      </trkpt>
      <trkpt lat="43.52361" lon="1.11785">
        <ele>252</ele>
        <time>2017-12-16T16:45:33+01:00</time>
      </trkpt>
      <trkpt lat="43.52373" lon="1.11805">
        <ele>252</ele>
        <time>2017-12-16T16:45:50+01:00</time>
      </trkpt>
      <trkpt lat="43.52383" lon="1.1182">
        <ele>252</ele>
        <time>2017-12-16T16:46:01+01:00</time>
      </trkpt>
      <trkpt lat="43.52395" lon="1.11826">
        <ele>252</ele>
        <time>2017-12-16T16:46:18+01:00</time>
      </trkpt>
      <trkpt lat="43.52394" lon="1.11826">
        <ele>252</ele>
        <time>2017-12-16T16:46:20+01:00</time>
      </trkpt>
      <trkpt lat="43.52388" lon="1.11835">
        <ele>252</ele>
        <time>2017-12-16T16:46:36+01:00</time>
      </trkpt>
      <trkpt lat="43.52359" lon="1.11863">
        <ele>250</ele>
        <time>2017-12-16T16:47:04+01:00</time>
      </trkpt>
      <trkpt lat="43.52343" lon="1.11885">
        <ele>248</ele>
        <time>2017-12-16T16:47:26+01:00</time>
      </trkpt>
      <trkpt lat="43.52327" lon="1.11896">
        <ele>248</ele>
        <time>2017-12-16T16:47:43+01:00</time>
      </trkpt>
      <trkpt lat="43.52306" lon="1.1192">
        <ele>247</ele>
        <time>2017-12-16T16:48:05+01:00</time>
      </trkpt>
      <trkpt lat="43.52291" lon="1.11921">
        <ele>247</ele>
        <time>2017-12-16T16:48:29+01:00</time>
      </trkpt>
      <trkpt lat="43.52283" lon="1.11919">
        <ele>248</ele>
        <time>2017-12-16T16:48:48+01:00</time>
      </trkpt>
      <trkpt lat="43.52274" lon="1.11912">
        <ele>248</ele>
        <time>2017-12-16T16:49:09+01:00</time>
      </trkpt>
      <trkpt lat="43.52273" lon="1.11911">
        <ele>248</ele>
        <time>2017-12-16T16:49:11+01:00</time>
      </trkpt>
      <trkpt lat="43.52251" lon="1.11903">
        <ele>249</ele>
        <time>2017-12-16T16:49:31+01:00</time>
      </trkpt>
      <trkpt lat="43.52241" lon="1.11916">
        <ele>249</ele>
        <time>2017-12-16T16:49:51+01:00</time>
      </trkpt>
      <trkpt lat="43.52247" lon="1.11941">
        <ele>249</ele>
        <time>2017-12-16T16:50:11+01:00</time>
      </trkpt>
      <trkpt lat="43.52254" lon="1.1197">
        <ele>249</ele>
        <time>2017-12-16T16:50:29+01:00</time>
      </trkpt>
      <trkpt lat="43.52253" lon="1.11997">
        <ele>249</ele>
        <time>2017-12-16T16:50:50+01:00</time>
      </trkpt>
      <trkpt lat="43.52246" lon="1.12001">
        <ele>249</ele>
        <time>2017-12-16T16:51:04+01:00</time>
      </trkpt>
      <trkpt lat="43.52244" lon="1.12003">
        <ele>249</ele>
        <time>2017-12-16T16:51:06+01:00</time>
      </trkpt>
      <trkpt lat="43.5224" lon="1.12011">
        <ele>250</ele>
        <time>2017-12-16T16:51:15+01:00</time>
      </trkpt>
      <trkpt lat="43.52223" lon="1.1202">
        <ele>252</ele>
        <time>2017-12-16T16:51:33+01:00</time>
      </trkpt>
      <trkpt lat="43.52211" lon="1.12029">
        <ele>253</ele>
        <time>2017-12-16T16:51:45+01:00</time>
      </trkpt>
      <trkpt lat="43.52208" lon="1.12032">
        <ele>253</ele>
        <time>2017-12-16T16:51:48+01:00</time>
      </trkpt>
      <trkpt lat="43.5219" lon="1.12044">
        <ele>255</ele>
        <time>2017-12-16T16:52:06+01:00</time>
      </trkpt>
      <trkpt lat="43.52172" lon="1.12058">
        <ele>258</ele>
        <time>2017-12-16T16:52:24+01:00</time>
      </trkpt>
      <trkpt lat="43.52161" lon="1.12066">
        <ele>259</ele>
        <time>2017-12-16T16:52:37+01:00</time>
      </trkpt>
      <trkpt lat="43.52149" lon="1.12086">
        <ele>260</ele>
        <time>2017-12-16T16:52:55+01:00</time>
      </trkpt>
      <trkpt lat="43.52137" lon="1.12107">
        <ele>261</ele>
        <time>2017-12-16T16:53:12+01:00</time>
      </trkpt>
      <trkpt lat="43.52124" lon="1.12126">
        <ele>263</ele>
        <time>2017-12-16T16:53:26+01:00</time>
      </trkpt>
      <trkpt lat="43.52108" lon="1.12136">
        <ele>264</ele>
        <time>2017-12-16T16:53:43+01:00</time>
      </trkpt>
      <trkpt lat="43.52107" lon="1.12137">
        <ele>264</ele>
        <time>2017-12-16T16:53:46+01:00</time>
      </trkpt>
      <trkpt lat="43.52099" lon="1.12142">
        <ele>265</ele>
        <time>2017-12-16T16:53:58+01:00</time>
      </trkpt>
      <trkpt lat="43.52091" lon="1.12151">
        <ele>266</ele>
        <time>2017-12-16T16:54:06+01:00</time>
      </trkpt>
      <trkpt lat="43.5207" lon="1.12176">
        <ele>270</ele>
        <time>2017-12-16T16:54:29+01:00</time>
      </trkpt>
      <trkpt lat="43.52064" lon="1.12188">
        <ele>271</ele>
        <time>2017-12-16T16:54:37+01:00</time>
      </trkpt>
      <trkpt lat="43.52055" lon="1.12211">
        <ele>273</ele>
        <time>2017-12-16T16:54:54+01:00</time>
      </trkpt>
      <trkpt lat="43.52047" lon="1.12235">
        <ele>277</ele>
        <time>2017-12-16T16:55:13+01:00</time>
      </trkpt>
      <trkpt lat="43.52036" lon="1.12252">
        <ele>280</ele>
        <time>2017-12-16T16:55:29+01:00</time>
      </trkpt>
      <trkpt lat="43.52028" lon="1.12265">
        <ele>282</ele>
        <time>2017-12-16T16:55:44+01:00</time>
      </trkpt>
      <trkpt lat="43.52016" lon="1.12283">
        <ele>286</ele>
        <time>2017-12-16T16:56:02+01:00</time>
      </trkpt>
      <trkpt lat="43.52005" lon="1.12296">
        <ele>288</ele>
        <time>2017-12-16T16:56:18+01:00</time>
      </trkpt>
      <trkpt lat="43.52004" lon="1.12297">
        <ele>288</ele>
        <time>2017-12-16T16:56:20+01:00</time>
      </trkpt>
      <trkpt lat="43.52002" lon="1.12296">
        <ele>288</ele>
        <time>2017-12-16T16:57:06+01:00</time>
      </trkpt>
      <trkpt lat="43.51974" lon="1.12321">
        <ele>293</ele>
        <time>2017-12-16T16:57:30+01:00</time>
      </trkpt>
      <trkpt lat="43.51969" lon="1.12326">
        <ele>294</ele>
        <time>2017-12-16T16:57:34+01:00</time>
      </trkpt>
      <trkpt lat="43.51951" lon="1.12343">
        <ele>297</ele>
        <time>2017-12-16T16:57:50+01:00</time>
      </trkpt>
      <trkpt lat="43.51942" lon="1.12351">
        <ele>298</ele>
        <time>2017-12-16T16:58:01+01:00</time>
      </trkpt>
      <trkpt lat="43.5194" lon="1.12353">
        <ele>299</ele>
        <time>2017-12-16T16:58:04+01:00</time>
      </trkpt>
      <trkpt lat="43.51936" lon="1.12358">
        <ele>299</ele>
        <time>2017-12-16T16:58:09+01:00</time>
      </trkpt>
      <trkpt lat="43.51923" lon="1.12374">
        <ele>300</ele>
        <time>2017-12-16T16:58:23+01:00</time>
      </trkpt>
      <trkpt lat="43.51914" lon="1.12386">
        <ele>301</ele>
        <time>2017-12-16T16:58:39+01:00</time>
      </trkpt>
      <trkpt lat="43.51909" lon="1.12394">
        <ele>302</ele>
        <time>2017-12-16T16:58:55+01:00</time>
      </trkpt>
      <trkpt lat="43.51911" lon="1.12397">
        <ele>302</ele>
        <time>2017-12-16T16:59:12+01:00</time>
      </trkpt>
      <trkpt lat="43.51915" lon="1.12404">
        <ele>302</ele>
        <time>2017-12-16T16:59:17+01:00</time>
      </trkpt>
      <trkpt lat="43.51916" lon="1.12408">
        <ele>302</ele>
        <time>2017-12-16T16:59:20+01:00</time>
      </trkpt>
      <trkpt lat="43.51924" lon="1.12434">
        <ele>303</ele>
        <time>2017-12-16T16:59:37+01:00</time>
      </trkpt>
      <trkpt lat="43.51924" lon="1.12436">
        <ele>303</ele>
        <time>2017-12-16T16:59:46+01:00</time>
      </trkpt>
      <trkpt lat="43.51926" lon="1.12442">
        <ele>304</ele>
        <time>2017-12-16T16:59:50+01:00</time>
      </trkpt>
      <trkpt lat="43.51927" lon="1.12445">
        <ele>304</ele>
        <time>2017-12-16T16:59:52+01:00</time>
      </trkpt>
      <trkpt lat="43.51929" lon="1.12452">
        <ele>304</ele>
        <time>2017-12-16T16:59:57+01:00</time>
      </trkpt>
      <trkpt lat="43.51937" lon="1.12474">
        <ele>305</ele>
        <time>2017-12-16T17:00:11+01:00</time>
      </trkpt>
      <trkpt lat="43.51938" lon="1.12477">
        <ele>305</ele>
        <time>2017-12-16T17:00:13+01:00</time>
      </trkpt>
      <trkpt lat="43.51948" lon="1.12506">
        <ele>305</ele>
        <time>2017-12-16T17:00:31+01:00</time>
      </trkpt>
      <trkpt lat="43.51948" lon="1.12512">
        <ele>305</ele>
        <time>2017-12-16T17:00:35+01:00</time>
      </trkpt>
      <trkpt lat="43.51958" lon="1.12543">
        <ele>305</ele>
        <time>2017-12-16T17:00:52+01:00</time>
      </trkpt>
      <trkpt lat="43.51959" lon="1.12548">
        <ele>305</ele>
        <time>2017-12-16T17:00:55+01:00</time>
      </trkpt>
      <trkpt lat="43.51971" lon="1.12584">
        <ele>305</ele>
        <time>2017-12-16T17:01:16+01:00</time>
      </trkpt>
      <trkpt lat="43.51976" lon="1.12608">
        <ele>305</ele>
        <time>2017-12-16T17:01:29+01:00</time>
      </trkpt>
      <trkpt lat="43.5198" lon="1.12612">
        <ele>305</ele>
        <time>2017-12-16T17:01:33+01:00</time>
      </trkpt>
      <trkpt lat="43.5199" lon="1.12623">
        <ele>305</ele>
        <time>2017-12-16T17:01:44+01:00</time>
      </trkpt>
      <trkpt lat="43.51995" lon="1.12631">
        <ele>305</ele>
        <time>2017-12-16T17:01:52+01:00</time>
      </trkpt>
      <trkpt lat="43.51997" lon="1.12638">
        <ele>305</ele>
        <time>2017-12-16T17:01:57+01:00</time>
      </trkpt>
      <trkpt lat="43.52005" lon="1.12663">
        <ele>304</ele>
        <time>2017-12-16T17:02:13+01:00</time>
      </trkpt>
      <trkpt lat="43.52013" lon="1.12688">
        <ele>304</ele>
        <time>2017-12-16T17:02:30+01:00</time>
      </trkpt>
      <trkpt lat="43.52015" lon="1.12692">
        <ele>304</ele>
        <time>2017-12-16T17:02:33+01:00</time>
      </trkpt>
      <trkpt lat="43.52031" lon="1.12719">
        <ele>304</ele>
        <time>2017-12-16T17:02:52+01:00</time>
      </trkpt>
      <trkpt lat="43.52035" lon="1.12728">
        <ele>304</ele>
        <time>2017-12-16T17:03:09+01:00</time>
      </trkpt>
      <trkpt lat="43.52034" lon="1.12732">
        <ele>304</ele>
        <time>2017-12-16T17:03:29+01:00</time>
      </trkpt>
      <trkpt lat="43.52038" lon="1.12741">
        <ele>303</ele>
        <time>2017-12-16T17:03:35+01:00</time>
      </trkpt>
      <trkpt lat="43.52048" lon="1.12771">
        <ele>302</ele>
        <time>2017-12-16T17:03:52+01:00</time>
      </trkpt>
      <trkpt lat="43.52055" lon="1.128">
        <ele>302</ele>
        <time>2017-12-16T17:04:08+01:00</time>
      </trkpt>
      <trkpt lat="43.52067" lon="1.12835">
        <ele>299</ele>
        <time>2017-12-16T17:04:27+01:00</time>
      </trkpt>
      <trkpt lat="43.52078" lon="1.12867">
        <ele>298</ele>
        <time>2017-12-16T17:04:46+01:00</time>
      </trkpt>
      <trkpt lat="43.52089" lon="1.12897">
        <ele>297</ele>
        <time>2017-12-16T17:05:04+01:00</time>
      </trkpt>
      <trkpt lat="43.52094" lon="1.12921">
        <ele>297</ele>
        <time>2017-12-16T17:05:18+01:00</time>
      </trkpt>
      <trkpt lat="43.52098" lon="1.12933">
        <ele>296</ele>
        <time>2017-12-16T17:05:25+01:00</time>
      </trkpt>
      <trkpt lat="43.52115" lon="1.12961">
        <ele>295</ele>
        <time>2017-12-16T17:05:44+01:00</time>
      </trkpt>
      <trkpt lat="43.52126" lon="1.12985">
        <ele>294</ele>
        <time>2017-12-16T17:06:01+01:00</time>
      </trkpt>
      <trkpt lat="43.52132" lon="1.13">
        <ele>294</ele>
        <time>2017-12-16T17:06:10+01:00</time>
      </trkpt>
      <trkpt lat="43.5214" lon="1.13032">
        <ele>294</ele>
        <time>2017-12-16T17:06:27+01:00</time>
      </trkpt>
      <trkpt lat="43.52146" lon="1.13067">
        <ele>293</ele>
        <time>2017-12-16T17:06:45+01:00</time>
      </trkpt>
      <trkpt lat="43.52146" lon="1.13074">
        <ele>292</ele>
        <time>2017-12-16T17:06:49+01:00</time>
      </trkpt>
      <trkpt lat="43.52153" lon="1.13105">
        <ele>291</ele>
        <time>2017-12-16T17:07:05+01:00</time>
      </trkpt>
      <trkpt lat="43.5216" lon="1.13126">
        <ele>291</ele>
        <time>2017-12-16T17:07:18+01:00</time>
      </trkpt>
      <trkpt lat="43.52163" lon="1.13136">
        <ele>290</ele>
        <time>2017-12-16T17:07:24+01:00</time>
      </trkpt>
      <trkpt lat="43.52178" lon="1.13166">
        <ele>291</ele>
        <time>2017-12-16T17:07:43+01:00</time>
      </trkpt>
      <trkpt lat="43.52179" lon="1.13168">
        <ele>291</ele>
        <time>2017-12-16T17:07:45+01:00</time>
      </trkpt>
      <trkpt lat="43.52191" lon="1.13197">
        <ele>291</ele>
        <time>2017-12-16T17:08:03+01:00</time>
      </trkpt>
      <trkpt lat="43.52194" lon="1.13206">
        <ele>291</ele>
        <time>2017-12-16T17:08:09+01:00</time>
      </trkpt>
      <trkpt lat="43.52205" lon="1.13236">
        <ele>293</ele>
        <time>2017-12-16T17:08:27+01:00</time>
      </trkpt>
      <trkpt lat="43.52206" lon="1.13239">
        <ele>294</ele>
        <time>2017-12-16T17:08:29+01:00</time>
      </trkpt>
      <trkpt lat="43.52213" lon="1.13257">
        <ele>295</ele>
        <time>2017-12-16T17:08:40+01:00</time>
      </trkpt>
      <trkpt lat="43.52216" lon="1.13278">
        <ele>294</ele>
        <time>2017-12-16T17:08:50+01:00</time>
      </trkpt>
      <trkpt lat="43.52217" lon="1.13287">
        <ele>294</ele>
        <time>2017-12-16T17:08:55+01:00</time>
      </trkpt>
      <trkpt lat="43.52219" lon="1.133">
        <ele>294</ele>
        <time>2017-12-16T17:09:03+01:00</time>
      </trkpt>
      <trkpt lat="43.52219" lon="1.1331">
        <ele>293</ele>
        <time>2017-12-16T17:09:18+01:00</time>
      </trkpt>
      <trkpt lat="43.52214" lon="1.13307">
        <ele>293</ele>
        <time>2017-12-16T17:09:50+01:00</time>
      </trkpt>
      <trkpt lat="43.52206" lon="1.13315">
        <ele>292</ele>
        <time>2017-12-16T17:10:17+01:00</time>
      </trkpt>
      <trkpt lat="43.52201" lon="1.13315">
        <ele>291</ele>
        <time>2017-12-16T17:10:21+01:00</time>
      </trkpt>
      <trkpt lat="43.52187" lon="1.13317">
        <ele>290</ele>
        <time>2017-12-16T17:10:31+01:00</time>
      </trkpt>
      <trkpt lat="43.52162" lon="1.13323">
        <ele>288</ele>
        <time>2017-12-16T17:10:48+01:00</time>
      </trkpt>
      <trkpt lat="43.52139" lon="1.13323">
        <ele>286</ele>
        <time>2017-12-16T17:11:06+01:00</time>
      </trkpt>
      <trkpt lat="43.52111" lon="1.13331">
        <ele>284</ele>
        <time>2017-12-16T17:11:26+01:00</time>
      </trkpt>
      <trkpt lat="43.52088" lon="1.13332">
        <ele>282</ele>
        <time>2017-12-16T17:11:43+01:00</time>
      </trkpt>
      <trkpt lat="43.52058" lon="1.13339">
        <ele>280</ele>
        <time>2017-12-16T17:12:02+01:00</time>
      </trkpt>
      <trkpt lat="43.52033" lon="1.13344">
        <ele>278</ele>
        <time>2017-12-16T17:12:21+01:00</time>
      </trkpt>
      <trkpt lat="43.52011" lon="1.13347">
        <ele>277</ele>
        <time>2017-12-16T17:12:39+01:00</time>
      </trkpt>
      <trkpt lat="43.51998" lon="1.13353">
        <ele>276</ele>
        <time>2017-12-16T17:12:53+01:00</time>
      </trkpt>
      <trkpt lat="43.52" lon="1.13355">
        <ele>276</ele>
        <time>2017-12-16T17:13:23+01:00</time>
      </trkpt>
      <trkpt lat="43.51999" lon="1.13403">
        <ele>274</ele>
        <time>2017-12-16T17:13:47+01:00</time>
      </trkpt>
      <trkpt lat="43.52002" lon="1.13434">
        <ele>274</ele>
        <time>2017-12-16T17:14:04+01:00</time>
      </trkpt>
      <trkpt lat="43.52002" lon="1.13468">
        <ele>272</ele>
        <time>2017-12-16T17:14:21+01:00</time>
      </trkpt>
      <trkpt lat="43.52002" lon="1.13474">
        <ele>272</ele>
        <time>2017-12-16T17:14:24+01:00</time>
      </trkpt>
      <trkpt lat="43.52007" lon="1.13483">
        <ele>272</ele>
        <time>2017-12-16T17:14:29+01:00</time>
      </trkpt>
      <trkpt lat="43.52004" lon="1.13508">
        <ele>271</ele>
        <time>2017-12-16T17:14:43+01:00</time>
      </trkpt>
      <trkpt lat="43.51996" lon="1.1352">
        <ele>270</ele>
        <time>2017-12-16T17:14:53+01:00</time>
      </trkpt>
      <trkpt lat="43.51979" lon="1.13534">
        <ele>269</ele>
        <time>2017-12-16T17:15:05+01:00</time>
      </trkpt>
      <trkpt lat="43.51973" lon="1.13542">
        <ele>269</ele>
        <time>2017-12-16T17:15:11+01:00</time>
      </trkpt>
      <trkpt lat="43.51959" lon="1.13562">
        <ele>267</ele>
        <time>2017-12-16T17:15:25+01:00</time>
      </trkpt>
      <trkpt lat="43.51954" lon="1.13569">
        <ele>266</ele>
        <time>2017-12-16T17:15:30+01:00</time>
      </trkpt>
      <trkpt lat="43.5195" lon="1.13573">
        <ele>266</ele>
        <time>2017-12-16T17:15:34+01:00</time>
      </trkpt>
      <trkpt lat="43.51934" lon="1.136">
        <ele>265</ele>
        <time>2017-12-16T17:15:51+01:00</time>
      </trkpt>
      <trkpt lat="43.51923" lon="1.13624">
        <ele>264</ele>
        <time>2017-12-16T17:16:05+01:00</time>
      </trkpt>
      <trkpt lat="43.51919" lon="1.13633">
        <ele>264</ele>
        <time>2017-12-16T17:16:11+01:00</time>
      </trkpt>
      <trkpt lat="43.51914" lon="1.13644">
        <ele>264</ele>
        <time>2017-12-16T17:16:18+01:00</time>
      </trkpt>
      <trkpt lat="43.51899" lon="1.13668">
        <ele>263</ele>
        <time>2017-12-16T17:16:33+01:00</time>
      </trkpt>
      <trkpt lat="43.51887" lon="1.13683">
        <ele>263</ele>
        <time>2017-12-16T17:16:44+01:00</time>
      </trkpt>
      <trkpt lat="43.51889" lon="1.13689">
        <ele>263</ele>
        <time>2017-12-16T17:16:59+01:00</time>
      </trkpt>
      <trkpt lat="43.51888" lon="1.13694">
        <ele>263</ele>
        <time>2017-12-16T17:17:15+01:00</time>
      </trkpt>
      <trkpt lat="43.51904" lon="1.13709">
        <ele>263</ele>
        <time>2017-12-16T17:17:31+01:00</time>
      </trkpt>
      <trkpt lat="43.51907" lon="1.13712">
        <ele>263</ele>
        <time>2017-12-16T17:17:34+01:00</time>
      </trkpt>
      <trkpt lat="43.51913" lon="1.13723">
        <ele>263</ele>
        <time>2017-12-16T17:17:42+01:00</time>
      </trkpt>
      <trkpt lat="43.5193" lon="1.13736">
        <ele>263</ele>
        <time>2017-12-16T17:17:57+01:00</time>
      </trkpt>
      <trkpt lat="43.51948" lon="1.13747">
        <ele>263</ele>
        <time>2017-12-16T17:18:18+01:00</time>
      </trkpt>
      <trkpt lat="43.51966" lon="1.13756">
        <ele>264</ele>
        <time>2017-12-16T17:18:31+01:00</time>
      </trkpt>
      <trkpt lat="43.51986" lon="1.13763">
        <ele>264</ele>
        <time>2017-12-16T17:18:47+01:00</time>
      </trkpt>
      <trkpt lat="43.51995" lon="1.13766">
        <ele>264</ele>
        <time>2017-12-16T17:18:54+01:00</time>
      </trkpt>
      <trkpt lat="43.52023" lon="1.13776">
        <ele>264</ele>
        <time>2017-12-16T17:19:12+01:00</time>
      </trkpt>
      <trkpt lat="43.52041" lon="1.13779">
        <ele>264</ele>
        <time>2017-12-16T17:19:26+01:00</time>
      </trkpt>
      <trkpt lat="43.52064" lon="1.13784">
        <ele>264</ele>
        <time>2017-12-16T17:19:43+01:00</time>
      </trkpt>
      <trkpt lat="43.52091" lon="1.13789">
        <ele>264</ele>
        <time>2017-12-16T17:20:02+01:00</time>
      </trkpt>
      <trkpt lat="43.52119" lon="1.13798">
        <ele>265</ele>
        <time>2017-12-16T17:20:22+01:00</time>
      </trkpt>
      <trkpt lat="43.52149" lon="1.13816">
        <ele>265</ele>
        <time>2017-12-16T17:20:46+01:00</time>
      </trkpt>
      <trkpt lat="43.52173" lon="1.13829">
        <ele>265</ele>
        <time>2017-12-16T17:21:04+01:00</time>
      </trkpt>
      <trkpt lat="43.52193" lon="1.13839">
        <ele>266</ele>
        <time>2017-12-16T17:21:20+01:00</time>
      </trkpt>
      <trkpt lat="43.52196" lon="1.13841">
        <ele>266</ele>
        <time>2017-12-16T17:21:37+01:00</time>
      </trkpt>
      <trkpt lat="43.52223" lon="1.13845">
        <ele>266</ele>
        <time>2017-12-16T17:21:57+01:00</time>
      </trkpt>
      <trkpt lat="43.52253" lon="1.13851">
        <ele>266</ele>
        <time>2017-12-16T17:22:20+01:00</time>
      </trkpt>
      <trkpt lat="43.52287" lon="1.13862">
        <ele>267</ele>
        <time>2017-12-16T17:22:46+01:00</time>
      </trkpt>
      <trkpt lat="43.52301" lon="1.1387">
        <ele>268</ele>
        <time>2017-12-16T17:23:01+01:00</time>
      </trkpt>
      <trkpt lat="43.52304" lon="1.13872">
        <ele>268</ele>
        <time>2017-12-16T17:23:04+01:00</time>
      </trkpt>
      <trkpt lat="43.52325" lon="1.13892">
        <ele>268</ele>
        <time>2017-12-16T17:23:25+01:00</time>
      </trkpt>
      <trkpt lat="43.52348" lon="1.13917">
        <ele>267</ele>
        <time>2017-12-16T17:23:49+01:00</time>
      </trkpt>
      <trkpt lat="43.52369" lon="1.13935">
        <ele>268</ele>
        <time>2017-12-16T17:24:08+01:00</time>
      </trkpt>
      <trkpt lat="43.52395" lon="1.13952">
        <ele>269</ele>
        <time>2017-12-16T17:24:30+01:00</time>
      </trkpt>
      <trkpt lat="43.52417" lon="1.13966">
        <ele>268</ele>
        <time>2017-12-16T17:24:49+01:00</time>
      </trkpt>
      <trkpt lat="43.52436" lon="1.13976">
        <ele>268</ele>
        <time>2017-12-16T17:25:07+01:00</time>
      </trkpt>
      <trkpt lat="43.52441" lon="1.13977">
        <ele>268</ele>
        <time>2017-12-16T17:25:11+01:00</time>
      </trkpt>
      <trkpt lat="43.52466" lon="1.13992">
        <ele>267</ele>
        <time>2017-12-16T17:25:31+01:00</time>
      </trkpt>
      <trkpt lat="43.52488" lon="1.14006">
        <ele>266</ele>
        <time>2017-12-16T17:25:50+01:00</time>
      </trkpt>
      <trkpt lat="43.52493" lon="1.1401">
        <ele>265</ele>
        <time>2017-12-16T17:25:56+01:00</time>
      </trkpt>
      <trkpt lat="43.52508" lon="1.14023">
        <ele>265</ele>
        <time>2017-12-16T17:26:11+01:00</time>
      </trkpt>
      <trkpt lat="43.5251" lon="1.14025">
        <ele>265</ele>
        <time>2017-12-16T17:26:12+01:00</time>
      </trkpt>
      <trkpt lat="43.5252" lon="1.14031">
        <ele>265</ele>
        <time>2017-12-16T17:26:21+01:00</time>
      </trkpt>
      <trkpt lat="43.52544" lon="1.14054">
        <ele>264</ele>
        <time>2017-12-16T17:26:44+01:00</time>
      </trkpt>
      <trkpt lat="43.52566" lon="1.14074">
        <ele>263</ele>
        <time>2017-12-16T17:27:03+01:00</time>
      </trkpt>
      <trkpt lat="43.52581" lon="1.14094">
        <ele>262</ele>
        <time>2017-12-16T17:27:19+01:00</time>
      </trkpt>
      <trkpt lat="43.52597" lon="1.14118">
        <ele>260</ele>
        <time>2017-12-16T17:27:35+01:00</time>
      </trkpt>
      <trkpt lat="43.52602" lon="1.14125">
        <ele>260</ele>
        <time>2017-12-16T17:27:39+01:00</time>
      </trkpt>
      <trkpt lat="43.52607" lon="1.14133">
        <ele>259</ele>
        <time>2017-12-16T17:27:44+01:00</time>
      </trkpt>
      <trkpt lat="43.52614" lon="1.14145">
        <ele>259</ele>
        <time>2017-12-16T17:27:54+01:00</time>
      </trkpt>
      <trkpt lat="43.52615" lon="1.14153">
        <ele>259</ele>
        <time>2017-12-16T17:27:58+01:00</time>
      </trkpt>
      <trkpt lat="43.52627" lon="1.14184">
        <ele>257</ele>
        <time>2017-12-16T17:28:17+01:00</time>
      </trkpt>
      <trkpt lat="43.52628" lon="1.14188">
        <ele>256</ele>
        <time>2017-12-16T17:28:20+01:00</time>
      </trkpt>
      <trkpt lat="43.52632" lon="1.14198">
        <ele>256</ele>
        <time>2017-12-16T17:28:26+01:00</time>
      </trkpt>
      <trkpt lat="43.52644" lon="1.14228">
        <ele>253</ele>
        <time>2017-12-16T17:28:46+01:00</time>
      </trkpt>
      <trkpt lat="43.52646" lon="1.14231">
        <ele>253</ele>
        <time>2017-12-16T17:28:48+01:00</time>
      </trkpt>
      <trkpt lat="43.52648" lon="1.14233">
        <ele>252</ele>
        <time>2017-12-16T17:28:50+01:00</time>
      </trkpt>
      <trkpt lat="43.52655" lon="1.14258">
        <ele>250</ele>
        <time>2017-12-16T17:29:06+01:00</time>
      </trkpt>
      <trkpt lat="43.52665" lon="1.14275">
        <ele>248</ele>
        <time>2017-12-16T17:29:18+01:00</time>
      </trkpt>
      <trkpt lat="43.52675" lon="1.14285">
        <ele>247</ele>
        <time>2017-12-16T17:29:26+01:00</time>
      </trkpt>
      <trkpt lat="43.52695" lon="1.14306">
        <ele>244</ele>
        <time>2017-12-16T17:29:44+01:00</time>
      </trkpt>
      <trkpt lat="43.52706" lon="1.14323">
        <ele>241</ele>
        <time>2017-12-16T17:29:57+01:00</time>
      </trkpt>
      <trkpt lat="43.52724" lon="1.14341">
        <ele>239</ele>
        <time>2017-12-16T17:30:11+01:00</time>
      </trkpt>
      <trkpt lat="43.52744" lon="1.14363">
        <ele>236</ele>
        <time>2017-12-16T17:30:30+01:00</time>
      </trkpt>
      <trkpt lat="43.52748" lon="1.14369">
        <ele>235</ele>
        <time>2017-12-16T17:30:36+01:00</time>
      </trkpt>
      <trkpt lat="43.52765" lon="1.14392">
        <ele>232</ele>
        <time>2017-12-16T17:30:54+01:00</time>
      </trkpt>
      <trkpt lat="43.52782" lon="1.14412">
        <ele>230</ele>
        <time>2017-12-16T17:31:11+01:00</time>
      </trkpt>
      <trkpt lat="43.528" lon="1.14435">
        <ele>229</ele>
        <time>2017-12-16T17:31:28+01:00</time>
      </trkpt>
      <trkpt lat="43.52805" lon="1.1444">
        <ele>229</ele>
        <time>2017-12-16T17:31:32+01:00</time>
      </trkpt>
      <trkpt lat="43.52811" lon="1.14447">
        <ele>229</ele>
        <time>2017-12-16T17:31:38+01:00</time>
      </trkpt>
      <trkpt lat="43.52824" lon="1.14465">
        <ele>227</ele>
        <time>2017-12-16T17:31:55+01:00</time>
      </trkpt>
      <trkpt lat="43.52841" lon="1.14478">
        <ele>227</ele>
        <time>2017-12-16T17:32:09+01:00</time>
      </trkpt>
      <trkpt lat="43.52839" lon="1.14477">
        <ele>227</ele>
        <time>2017-12-16T17:32:17+01:00</time>
      </trkpt>
      <trkpt lat="43.52843" lon="1.1448">
        <ele>227</ele>
        <time>2017-12-16T17:32:21+01:00</time>
      </trkpt>
      <trkpt lat="43.52846" lon="1.14487">
        <ele>227</ele>
        <time>2017-12-16T17:32:25+01:00</time>
      </trkpt>
      <trkpt lat="43.5285" lon="1.14501">
        <ele>226</ele>
        <time>2017-12-16T17:32:34+01:00</time>
      </trkpt>
      <trkpt lat="43.52849" lon="1.14506">
        <ele>226</ele>
        <time>2017-12-16T17:32:37+01:00</time>
      </trkpt>
      <trkpt lat="43.52846" lon="1.14534">
        <ele>226</ele>
        <time>2017-12-16T17:33:00+01:00</time>
      </trkpt>
      <trkpt lat="43.52841" lon="1.14557">
        <ele>226</ele>
        <time>2017-12-16T17:33:07+01:00</time>
      </trkpt>
      <trkpt lat="43.52839" lon="1.14568">
        <ele>226</ele>
        <time>2017-12-16T17:33:13+01:00</time>
      </trkpt>
      <trkpt lat="43.52847" lon="1.14579">
        <ele>225</ele>
        <time>2017-12-16T17:33:27+01:00</time>
      </trkpt>
      <trkpt lat="43.52851" lon="1.14577">
        <ele>225</ele>
        <time>2017-12-16T17:33:31+01:00</time>
      </trkpt>
    </trkseg>
  </trk>
</gpx>